Time,TemperatureF,DewpointF,PressureIn,WindDirection,WindDirectionDegrees,WindSpeedMPH,WindSpeedGustMPH,Humidity,HourlyPrecipIn,Conditions,Clouds,dailyrainin,SoftwareType,DateUTC
2013-04-16 00:02:00,63.3,45.4,27.88,South,177,2.2,2.2,52,0.00,,---,0.00,VWS V14.01,2013-04-16 05:02:00,
2013-04-16 00:03:00,63.3,45.4,27.88,SSE,163,5.4,5.4,52,0.00,,---,0.00,VWS V14.01,2013-04-16 05:03:00,
2013-04-16 00:07:00,63.3,45.4,27.88,South,175,3.1,3.6,52,0.00,,---,0.00,VWS V14.01,2013-04-16 05:07:00,
2013-04-16 00:08:00,63.1,45.2,27.88,South,175,3.1,3.6,52,0.00,,---,0.00,VWS V14.01,2013-04-16 05:08:00,
2013-04-16 00:12:00,63.3,45.9,27.88,South,178,3.6,3.6,53,0.00,,---,0.00,VWS V14.01,2013-04-16 05:12:00,
2013-04-16 00:13:00,63.3,45.9,27.88,South,171,3.6,3.6,53,0.00,,---,0.00,VWS V14.01,2013-04-16 05:13:00,
2013-04-16 00:17:00,63.1,45.8,27.88,SSE,161,4.9,4.9,53,0.00,,---,0.00,VWS V14.01,2013-04-16 05:17:00,
2013-04-16 00:18:00,63.1,45.8,27.88,SSE,161,4.9,4.9,53,0.00,,---,0.00,VWS V14.01,2013-04-16 05:18:00,
2013-04-16 00:23:00,63.1,45.8,27.85,South,174,4.0,4.0,53,0.00,,---,0.00,VWS V14.01,2013-04-16 05:23:00,
2013-04-16 00:28:00,63.1,46.2,27.85,South,177,3.6,3.6,54,0.00,,---,0.00,VWS V14.01,2013-04-16 05:28:00,
2013-04-16 00:33:00,63.1,46.2,27.85,South,170,2.2,2.2,54,0.00,,---,0.00,VWS V14.01,2013-04-16 05:33:00,
2013-04-16 00:38:00,63.0,46.1,27.85,South,170,0.0,0.0,54,0.00,,---,0.00,VWS V14.01,2013-04-16 05:38:00,
2013-04-16 00:39:00,63.0,46.1,27.85,South,170,3.1,3.1,54,0.00,,---,0.00,VWS V14.01,2013-04-16 05:39:00,
2013-04-16 00:43:00,63.0,46.6,27.85,South,170,0.0,0.0,55,0.00,,---,0.00,VWS V14.01,2013-04-16 05:43:00,
2013-04-16 00:44:00,63.0,46.6,27.85,South,170,0.0,0.0,55,0.00,,---,0.00,VWS V14.01,2013-04-16 05:44:00,
2013-04-16 00:48:00,63.0,46.6,27.88,South,170,3.1,3.1,55,0.00,,---,0.00,VWS V14.01,2013-04-16 05:48:00,
2013-04-16 00:49:00,63.0,46.6,27.88,South,170,3.1,3.1,55,0.00,,---,0.00,VWS V14.01,2013-04-16 05:49:00,
2013-04-16 00:53:00,62.8,45.9,27.88,South,170,0.0,0.0,54,0.00,,---,0.00,VWS V14.01,2013-04-16 05:53:00,
2013-04-16 00:54:00,62.8,45.9,27.88,South,170,0.0,0.0,54,0.00,,---,0.00,VWS V14.01,2013-04-16 05:54:00,
2013-04-16 00:58:00,62.6,46.7,27.88,SSE,165,4.9,4.9,56,0.00,,---,0.00,VWS V14.01,2013-04-16 05:58:00,
2013-04-16 00:59:00,62.6,46.7,27.88,SSE,165,4.9,4.9,56,0.00,,---,0.00,VWS V14.01,2013-04-16 05:59:00,
2013-04-16 01:03:00,62.6,46.7,27.88,SSE,160,3.6,3.6,56,0.00,,---,0.00,VWS V14.01,2013-04-16 06:03:00,
2013-04-16 01:04:00,62.6,46.7,27.88,SSE,160,3.6,3.6,56,0.00,,---,0.00,VWS V14.01,2013-04-16 06:04:00,
2013-04-16 01:05:00,62.6,46.7,27.88,SSE,168,4.0,4.0,56,0.00,,---,0.00,VWS V14.01,2013-04-16 06:05:00,
2013-04-16 01:09:00,62.6,47.2,27.85,SSE,160,5.4,5.4,57,0.00,,---,0.00,VWS V14.01,2013-04-16 06:09:00,
2013-04-16 01:10:00,62.6,47.2,27.85,SSE,168,6.3,6.3,57,0.00,,---,0.00,VWS V14.01,2013-04-16 06:10:00,
2013-04-16 01:14:00,63.0,48.0,27.85,SSE,164,3.1,5.8,58,0.00,,---,0.00,VWS V14.01,2013-04-16 06:14:00,
2013-04-16 01:15:00,63.0,48.0,27.85,SSE,164,3.1,3.1,58,0.00,,---,0.00,VWS V14.01,2013-04-16 06:15:00,
2013-04-16 01:19:00,63.1,47.7,27.85,South,180,5.8,5.8,57,0.00,,---,0.00,VWS V14.01,2013-04-16 06:19:00,
2013-04-16 01:20:00,63.1,47.7,27.85,South,180,5.8,5.8,57,0.00,,---,0.00,VWS V14.01,2013-04-16 06:20:00,
2013-04-16 01:24:00,63.3,47.8,27.85,SSE,154,4.0,4.0,57,0.00,,---,0.00,VWS V14.01,2013-04-16 06:24:00,
2013-04-16 01:25:00,63.3,47.8,27.85,SSE,154,4.0,4.0,57,0.00,,---,0.00,VWS V14.01,2013-04-16 06:25:00,
2013-04-16 01:29:00,63.3,47.4,27.88,South,173,4.9,4.9,56,0.00,,---,0.00,VWS V14.01,2013-04-16 06:29:00,
2013-04-16 01:30:00,63.3,47.4,27.88,South,173,4.9,4.9,56,0.00,,---,0.00,VWS V14.01,2013-04-16 06:30:00,
2013-04-16 01:34:00,63.5,47.5,27.88,South,172,3.1,6.3,56,0.00,,---,0.00,VWS V14.01,2013-04-16 06:34:00,
2013-04-16 01:35:00,63.5,47.5,27.88,South,172,3.1,6.3,56,0.00,,---,0.00,VWS V14.01,2013-04-16 06:35:00,
2013-04-16 01:39:00,63.5,47.5,27.91,SSE,167,3.6,3.6,56,0.00,,---,0.00,VWS V14.01,2013-04-16 06:39:00,
2013-04-16 01:40:00,63.5,47.5,27.91,SSE,167,3.6,3.6,56,0.00,,---,0.00,VWS V14.01,2013-04-16 06:40:00,
2013-04-16 01:44:00,63.5,47.5,27.91,SSE,163,3.6,3.6,56,0.00,,---,0.00,VWS V14.01,2013-04-16 06:44:00,
2013-04-16 01:45:00,63.5,47.5,27.91,SSE,163,3.6,3.6,56,0.00,,---,0.00,VWS V14.01,2013-04-16 06:45:00,
2013-04-16 01:46:00,63.5,47.5,27.91,South,170,5.8,5.8,56,0.00,,---,0.00,VWS V14.01,2013-04-16 06:46:00,
2013-04-16 01:50:00,63.5,47.5,27.91,South,173,3.6,4.5,56,0.00,,---,0.00,VWS V14.01,2013-04-16 06:50:00,
2013-04-16 01:51:00,63.5,47.5,27.91,South,173,3.6,3.6,56,0.00,,---,0.00,VWS V14.01,2013-04-16 06:51:00,
2013-04-16 01:55:00,63.5,47.5,27.91,SSE,162,2.7,2.7,56,0.00,,---,0.00,VWS V14.01,2013-04-16 06:55:00,
2013-04-16 01:56:00,63.5,47.5,27.88,SSE,167,3.6,3.6,56,0.00,,---,0.00,VWS V14.01,2013-04-16 06:56:00,
2013-04-16 02:00:00,63.5,47.5,27.88,South,177,6.3,6.3,56,0.00,,---,0.00,VWS V14.01,2013-04-16 07:00:00,
2013-04-16 02:01:00,63.5,47.5,27.88,South,177,6.3,6.3,56,0.00,,---,0.00,VWS V14.01,2013-04-16 07:01:00,
2013-04-16 02:02:00,63.5,47.5,27.88,South,177,6.3,6.3,56,0.00,,---,0.00,VWS V14.01,2013-04-16 07:02:00,
2013-04-16 02:05:00,63.5,47.5,27.88,South,173,5.8,5.8,56,0.00,,---,0.00,VWS V14.01,2013-04-16 07:05:00,
2013-04-16 02:06:00,63.5,47.5,27.88,South,173,5.8,5.8,56,0.00,,---,0.00,VWS V14.01,2013-04-16 07:06:00,
2013-04-16 02:07:00,63.5,47.5,27.88,SSE,167,5.4,5.8,56,0.00,,---,0.00,VWS V14.01,2013-04-16 07:07:00,
2013-04-16 02:10:00,63.5,47.5,27.91,SSE,164,5.4,5.4,56,0.00,,---,0.00,VWS V14.01,2013-04-16 07:10:00,
2013-04-16 02:11:00,63.5,47.5,27.91,SSE,164,5.4,5.4,56,0.00,,---,0.00,VWS V14.01,2013-04-16 07:11:00,
2013-04-16 02:12:00,63.5,47.5,27.91,SSE,164,5.4,5.4,56,0.00,,---,0.00,VWS V14.01,2013-04-16 07:12:00,
2013-04-16 02:15:00,63.5,47.5,27.91,SSE,164,5.4,5.4,56,0.00,,---,0.00,VWS V14.01,2013-04-16 07:15:00,
2013-04-16 02:16:00,63.5,47.5,27.91,SE,146,5.4,5.4,56,0.00,,---,0.00,VWS V14.01,2013-04-16 07:16:00,
2013-04-16 02:17:00,63.5,47.5,27.91,SE,146,5.4,5.4,56,0.00,,---,0.00,VWS V14.01,2013-04-16 07:17:00,
2013-04-16 02:20:00,63.5,46.6,27.91,South,182,6.3,6.3,54,0.00,,---,0.00,VWS V14.01,2013-04-16 07:20:00,
2013-04-16 02:21:00,63.7,46.2,27.91,SSE,156,3.6,3.6,53,0.00,,---,0.00,VWS V14.01,2013-04-16 07:21:00,
2013-04-16 02:22:00,63.7,46.2,27.91,SSE,156,3.6,3.6,53,0.00,,---,0.00,VWS V14.01,2013-04-16 07:22:00,
2013-04-16 02:25:00,63.7,46.2,27.91,SSE,162,5.4,5.4,53,0.00,,---,0.00,VWS V14.01,2013-04-16 07:25:00,
2013-04-16 02:26:00,63.9,45.9,27.91,SSE,162,5.4,5.4,52,0.00,,---,0.00,VWS V14.01,2013-04-16 07:26:00,
2013-04-16 02:27:00,63.9,45.9,27.91,SSE,162,5.4,5.4,52,0.00,,---,0.00,VWS V14.01,2013-04-16 07:27:00,
2013-04-16 02:28:00,63.9,45.9,27.91,SSE,162,5.4,5.4,52,0.00,,---,0.00,VWS V14.01,2013-04-16 07:28:00,
2013-04-16 02:30:00,64.0,46.1,27.91,SSE,167,4.9,4.9,52,0.00,,---,0.00,VWS V14.01,2013-04-16 07:30:00,
2013-04-16 02:32:00,64.0,45.6,27.91,SSE,167,4.9,4.9,51,0.00,,---,0.00,VWS V14.01,2013-04-16 07:32:00,
2013-04-16 02:33:00,64.0,45.6,27.91,SW,225,5.4,5.4,51,0.00,,---,0.00,VWS V14.01,2013-04-16 07:33:00,
2013-04-16 02:35:00,64.0,45.6,27.91,NNW,335,2.7,2.7,51,0.00,,---,0.00,VWS V14.01,2013-04-16 07:35:00,
2013-04-16 02:37:00,64.0,45.6,27.91,NNW,335,2.7,2.7,51,0.00,,---,0.00,VWS V14.01,2013-04-16 07:37:00,
2013-04-16 02:38:00,64.0,45.6,27.91,NNW,335,2.7,2.7,51,0.00,,---,0.00,VWS V14.01,2013-04-16 07:38:00,
2013-04-16 02:40:00,64.0,45.6,27.91,South,179,2.7,2.7,51,0.00,,---,0.00,VWS V14.01,2013-04-16 07:40:00,
2013-04-16 02:42:00,64.0,45.6,27.91,South,179,2.7,2.7,51,0.00,,---,0.00,VWS V14.01,2013-04-16 07:42:00,
2013-04-16 02:43:00,64.0,45.6,27.91,South,179,2.7,2.7,51,0.00,,---,0.00,VWS V14.01,2013-04-16 07:43:00,
2013-04-16 02:45:00,64.0,45.6,27.85,South,179,2.7,2.7,51,0.00,,---,0.00,VWS V14.01,2013-04-16 07:45:00,
2013-04-16 02:47:00,64.0,45.6,27.85,South,183,2.7,2.7,51,0.00,,---,0.00,VWS V14.01,2013-04-16 07:47:00,
2013-04-16 02:48:00,64.0,45.6,27.85,SSE,165,4.9,4.9,51,0.00,,---,0.00,VWS V14.01,2013-04-16 07:48:00,
2013-04-16 02:50:00,64.2,45.7,27.85,South,184,3.1,4.9,51,0.00,,---,0.00,VWS V14.01,2013-04-16 07:50:00,
2013-04-16 02:52:00,64.2,45.7,27.85,South,180,3.6,3.6,51,0.00,,---,0.00,VWS V14.01,2013-04-16 07:52:00,
2013-04-16 02:53:00,64.2,45.7,27.85,South,180,3.6,3.6,51,0.00,,---,0.00,VWS V14.01,2013-04-16 07:53:00,
2013-04-16 02:55:00,64.2,45.7,27.88,South,178,2.7,4.9,51,0.00,,---,0.00,VWS V14.01,2013-04-16 07:55:00,
2013-04-16 02:57:00,64.2,45.7,27.88,South,178,2.7,2.7,51,0.00,,---,0.00,VWS V14.01,2013-04-16 07:57:00,
2013-04-16 02:58:00,64.2,45.7,27.88,South,178,2.7,2.7,51,0.00,,---,0.00,VWS V14.01,2013-04-16 07:58:00,
2013-04-16 03:01:00,64.4,45.4,27.88,South,171,5.4,5.4,50,0.00,,---,0.00,VWS V14.01,2013-04-16 08:01:00,
2013-04-16 03:02:00,64.4,45.4,27.88,South,171,5.4,5.4,50,0.00,,---,0.00,VWS V14.01,2013-04-16 08:02:00,
2013-04-16 03:03:00,64.4,45.4,27.88,South,171,5.4,5.4,50,0.00,,---,0.00,VWS V14.01,2013-04-16 08:03:00,
2013-04-16 03:06:00,64.4,45.4,27.88,South,171,5.4,5.4,50,0.00,,---,0.00,VWS V14.01,2013-04-16 08:06:00,
2013-04-16 03:08:00,64.4,45.4,27.88,South,171,5.4,5.4,50,0.00,,---,0.00,VWS V14.01,2013-04-16 08:08:00,
2013-04-16 03:11:00,64.6,45.5,27.91,South,191,6.3,6.3,50,0.00,,---,0.00,VWS V14.01,2013-04-16 08:11:00,
2013-04-16 03:13:00,64.6,45.5,27.91,South,191,6.3,6.3,50,0.00,,---,0.00,VWS V14.01,2013-04-16 08:13:00,
2013-04-16 03:16:00,64.6,45.5,27.91,SSE,164,3.6,3.6,50,0.00,,---,0.00,VWS V14.01,2013-04-16 08:16:00,
2013-04-16 03:18:00,64.6,45.5,27.91,SSE,164,3.6,3.6,50,0.00,,---,0.00,VWS V14.01,2013-04-16 08:18:00,
2013-04-16 03:22:00,64.6,45.5,27.91,SSE,152,3.6,3.6,50,0.00,,---,0.00,VWS V14.01,2013-04-16 08:22:00,
2013-04-16 03:23:00,64.6,45.5,27.91,SSE,152,3.6,3.6,50,0.00,,---,0.00,VWS V14.01,2013-04-16 08:23:00,
2013-04-16 03:24:00,64.6,45.5,27.91,SSE,152,3.6,3.6,50,0.00,,---,0.00,VWS V14.01,2013-04-16 08:24:00,
2013-04-16 03:27:00,64.6,45.5,27.91,SSW,213,4.5,4.5,50,0.00,,---,0.00,VWS V14.01,2013-04-16 08:27:00,
2013-04-16 03:28:00,64.4,45.4,27.91,SSW,213,4.5,4.5,50,0.00,,---,0.00,VWS V14.01,2013-04-16 08:28:00,
2013-04-16 03:29:00,64.4,45.4,27.91,SSW,213,4.5,4.5,50,0.00,,---,0.00,VWS V14.01,2013-04-16 08:29:00,
2013-04-16 03:33:00,64.4,45.9,27.91,SE,144,6.3,6.3,51,0.00,,---,0.00,VWS V14.01,2013-04-16 08:33:00,
2013-04-16 03:34:00,64.4,45.9,27.91,SE,144,6.3,6.3,51,0.00,,---,0.00,VWS V14.01,2013-04-16 08:34:00,
2013-04-16 03:38:00,64.2,45.7,27.88,South,183,4.0,4.0,51,0.00,,---,0.00,VWS V14.01,2013-04-16 08:38:00,
2013-04-16 03:39:00,64.2,46.2,27.88,South,183,4.0,4.0,52,0.00,,---,0.00,VWS V14.01,2013-04-16 08:39:00,
2013-04-16 03:43:00,64.2,46.2,27.88,SSE,154,3.6,3.6,52,0.00,,---,0.00,VWS V14.01,2013-04-16 08:43:00,
2013-04-16 03:44:00,64.2,46.2,27.88,SSE,153,4.9,4.9,52,0.00,,---,0.00,VWS V14.01,2013-04-16 08:44:00,
2013-04-16 03:48:00,64.2,46.2,27.88,SSE,150,7.6,7.6,52,0.00,,---,0.00,VWS V14.01,2013-04-16 08:48:00,
2013-04-16 03:49:00,64.2,46.2,27.88,South,175,5.4,7.6,52,0.00,,---,0.00,VWS V14.01,2013-04-16 08:49:00,
2013-04-16 03:53:00,64.2,46.2,27.88,South,187,9.6,9.6,52,0.00,,---,0.00,VWS V14.01,2013-04-16 08:53:00,
2013-04-16 03:54:00,64.2,46.2,27.88,South,187,9.6,9.6,52,0.00,,---,0.00,VWS V14.01,2013-04-16 08:54:00,
2013-04-16 03:55:00,64.2,46.2,27.88,South,175,8.3,9.6,52,0.00,,---,0.00,VWS V14.01,2013-04-16 08:55:00,
2013-04-16 03:58:00,64.2,46.2,27.88,SE,135,5.8,5.8,52,0.00,,---,0.00,VWS V14.01,2013-04-16 08:58:00,
2013-04-16 03:59:00,64.2,46.2,27.88,SSE,168,5.4,5.4,52,0.00,,---,0.00,VWS V14.01,2013-04-16 08:59:00,
2013-04-16 04:00:00,64.2,46.2,27.88,SE,142,8.1,8.1,52,0.00,,---,0.00,VWS V14.01,2013-04-16 09:00:00,
2013-04-16 04:03:00,64.2,46.2,27.88,SSE,154,5.4,5.4,52,0.00,,---,0.00,VWS V14.01,2013-04-16 09:03:00,
2013-04-16 04:04:00,64.2,46.2,27.88,SSE,154,5.4,5.4,52,0.00,,---,0.00,VWS V14.01,2013-04-16 09:04:00,
2013-04-16 04:05:00,64.2,46.2,27.88,SSE,154,5.4,5.4,52,0.00,,---,0.00,VWS V14.01,2013-04-16 09:05:00,
2013-04-16 04:08:00,64.2,46.2,27.88,SSE,148,2.7,2.7,52,0.00,,---,0.00,VWS V14.01,2013-04-16 09:08:00,
2013-04-16 04:09:00,64.0,46.1,27.85,SSE,148,2.7,2.7,52,0.00,,---,0.00,VWS V14.01,2013-04-16 09:09:00,
2013-04-16 04:10:00,64.0,46.1,27.85,SSE,148,2.7,2.7,52,0.00,,---,0.00,VWS V14.01,2013-04-16 09:10:00,
2013-04-16 04:13:00,64.0,46.1,27.85,SSE,152,4.0,4.0,52,0.00,,---,0.00,VWS V14.01,2013-04-16 09:13:00,
2013-04-16 04:14:00,64.0,46.1,27.85,SSE,152,4.0,4.0,52,0.00,,---,0.00,VWS V14.01,2013-04-16 09:14:00,
2013-04-16 04:15:00,64.0,46.1,27.85,SSE,152,4.0,4.0,52,0.00,,---,0.00,VWS V14.01,2013-04-16 09:15:00,
2013-04-16 04:18:00,64.0,46.6,27.85,SSE,165,3.1,3.1,53,0.00,,---,0.00,VWS V14.01,2013-04-16 09:18:00,
2013-04-16 04:20:00,64.0,46.6,27.85,SE,140,4.9,8.3,53,0.00,,---,0.00,VWS V14.01,2013-04-16 09:20:00,
2013-04-16 04:24:00,64.0,47.1,27.85,SE,140,4.9,4.9,54,0.00,,---,0.00,VWS V14.01,2013-04-16 09:24:00,
2013-04-16 04:25:00,64.0,47.1,27.85,SE,140,4.9,4.9,54,0.00,,---,0.00,VWS V14.01,2013-04-16 09:25:00,
2013-04-16 04:26:00,64.2,46.8,27.85,SE,140,4.9,4.9,53,0.00,,---,0.00,VWS V14.01,2013-04-16 09:26:00,
2013-04-16 04:29:00,64.2,47.2,27.88,SSE,162,4.0,4.0,54,0.00,,---,0.00,VWS V14.01,2013-04-16 09:29:00,
2013-04-16 04:30:00,64.2,47.2,27.88,South,190,5.4,5.4,54,0.00,,---,0.00,VWS V14.01,2013-04-16 09:30:00,
2013-04-16 04:31:00,64.2,47.2,27.88,South,190,5.4,5.4,54,0.00,,---,0.00,VWS V14.01,2013-04-16 09:31:00,
2013-04-16 04:35:00,64.2,47.2,27.88,SSE,164,4.0,4.0,54,0.00,,---,0.00,VWS V14.01,2013-04-16 09:35:00,
2013-04-16 04:36:00,64.2,47.2,27.88,SSE,164,4.0,4.0,54,0.00,,---,0.00,VWS V14.01,2013-04-16 09:36:00,
2013-04-16 04:37:00,64.2,47.2,27.88,SSE,164,4.0,4.0,54,0.00,,---,0.00,VWS V14.01,2013-04-16 09:37:00,
2013-04-16 04:40:00,64.2,47.2,27.91,SSE,162,4.9,4.9,54,0.00,,---,0.00,VWS V14.01,2013-04-16 09:40:00,
2013-04-16 04:41:00,64.2,47.2,27.91,South,171,5.4,5.4,54,0.00,,---,0.00,VWS V14.01,2013-04-16 09:41:00,
2013-04-16 04:42:00,64.2,47.2,27.91,South,170,8.1,8.1,54,0.00,,---,0.00,VWS V14.01,2013-04-16 09:42:00,
2013-04-16 04:45:00,64.2,47.2,27.91,ESE,120,6.3,6.3,54,0.00,,---,0.00,VWS V14.01,2013-04-16 09:45:00,
2013-04-16 04:46:00,64.2,47.2,27.91,ESE,120,6.3,6.3,54,0.00,,---,0.00,VWS V14.01,2013-04-16 09:46:00,
2013-04-16 04:47:00,64.2,47.2,27.91,South,170,7.6,7.6,54,0.00,,---,0.00,VWS V14.01,2013-04-16 09:47:00,
2013-04-16 04:50:00,64.2,47.2,27.91,SSE,164,5.8,5.8,54,0.00,,---,0.00,VWS V14.01,2013-04-16 09:50:00,
2013-04-16 04:51:00,64.2,47.2,27.91,SSE,164,5.8,5.8,54,0.00,,---,0.00,VWS V14.01,2013-04-16 09:51:00,
2013-04-16 04:52:00,64.0,47.1,27.91,SE,144,2.7,2.7,54,0.00,,---,0.00,VWS V14.01,2013-04-16 09:52:00,
2013-04-16 04:55:00,64.0,47.1,27.91,SSE,162,5.4,6.3,54,0.00,,---,0.00,VWS V14.01,2013-04-16 09:55:00,
2013-04-16 04:56:00,64.0,47.1,27.91,SSE,162,5.4,5.4,54,0.00,,---,0.00,VWS V14.01,2013-04-16 09:56:00,
2013-04-16 04:57:00,64.0,47.1,27.91,SSE,162,5.4,5.4,54,0.00,,---,0.00,VWS V14.01,2013-04-16 09:57:00,
2013-04-16 05:00:00,63.9,47.4,27.91,South,176,7.6,9.6,55,0.00,,---,0.00,VWS V14.01,2013-04-16 10:00:00,
2013-04-16 05:01:00,63.9,47.4,27.91,South,176,7.6,7.6,55,0.00,,---,0.00,VWS V14.01,2013-04-16 10:01:00,
2013-04-16 05:02:00,63.9,47.4,27.91,SSE,159,8.3,8.3,55,0.00,,---,0.00,VWS V14.01,2013-04-16 10:02:00,
2013-04-16 05:05:00,63.9,47.4,27.91,SSE,158,4.0,8.3,55,0.00,,---,0.00,VWS V14.01,2013-04-16 10:05:00,
2013-04-16 05:06:00,63.9,47.4,27.91,SSE,158,4.0,8.3,55,0.00,,---,0.00,VWS V14.01,2013-04-16 10:06:00,
2013-04-16 05:07:00,63.9,47.4,27.91,SSE,158,4.0,4.0,55,0.00,,---,0.00,VWS V14.01,2013-04-16 10:07:00,
2013-04-16 05:10:00,63.9,47.4,27.91,SSE,147,3.6,3.6,55,0.00,,---,0.00,VWS V14.01,2013-04-16 10:10:00,
2013-04-16 05:12:00,63.7,47.7,27.91,SSE,152,5.4,5.4,56,0.00,,---,0.00,VWS V14.01,2013-04-16 10:12:00,
2013-04-16 05:15:00,63.7,47.7,27.91,SSE,166,3.6,4.9,56,0.00,,---,0.00,VWS V14.01,2013-04-16 10:15:00,
2013-04-16 05:17:00,63.7,47.7,27.91,SSE,166,3.6,3.6,56,0.00,,---,0.00,VWS V14.01,2013-04-16 10:17:00,
2013-04-16 05:21:00,63.5,48.0,27.91,SSE,166,3.6,3.6,57,0.00,,---,0.00,VWS V14.01,2013-04-16 10:21:00,
2013-04-16 05:22:00,63.5,48.0,27.91,SSE,162,4.5,4.5,57,0.00,,---,0.00,VWS V14.01,2013-04-16 10:22:00,
2013-04-16 05:23:00,63.5,48.0,27.91,SE,143,6.3,6.3,57,0.00,,---,0.00,VWS V14.01,2013-04-16 10:23:00,
2013-04-16 05:26:00,63.5,48.0,27.91,SSE,162,3.1,3.1,57,0.00,,---,0.00,VWS V14.01,2013-04-16 10:26:00,
2013-04-16 05:27:00,63.5,48.0,27.91,SSE,166,3.6,3.6,57,0.00,,---,0.00,VWS V14.01,2013-04-16 10:27:00,
2013-04-16 05:28:00,63.5,48.0,27.91,SSE,166,3.6,3.6,57,0.00,,---,0.00,VWS V14.01,2013-04-16 10:28:00,
2013-04-16 05:31:00,63.5,48.0,27.91,South,173,3.1,3.1,57,0.00,,---,0.00,VWS V14.01,2013-04-16 10:31:00,
2013-04-16 05:32:00,63.5,48.5,27.91,South,173,3.1,3.1,58,0.00,,---,0.00,VWS V14.01,2013-04-16 10:32:00,
2013-04-16 05:33:00,63.5,48.5,27.91,South,173,3.1,3.1,58,0.00,,---,0.00,VWS V14.01,2013-04-16 10:33:00,
2013-04-16 05:36:00,63.5,48.5,27.91,SSE,165,5.4,5.4,58,0.00,,---,0.00,VWS V14.01,2013-04-16 10:36:00,
2013-04-16 05:37:00,63.5,48.5,27.91,SSE,147,3.6,3.6,58,0.00,,---,0.00,VWS V14.01,2013-04-16 10:37:00,
2013-04-16 05:38:00,63.5,48.5,27.91,SSE,147,3.6,3.6,58,0.00,,---,0.00,VWS V14.01,2013-04-16 10:38:00,
2013-04-16 05:39:00,63.5,48.5,27.91,SSE,153,0.0,0.0,58,0.00,,---,0.00,VWS V14.01,2013-04-16 10:39:00,
2013-04-16 05:41:00,63.5,48.5,27.91,SE,143,4.0,4.0,58,0.00,,---,0.00,VWS V14.01,2013-04-16 10:41:00,
2013-04-16 05:42:00,63.5,48.5,27.91,SE,143,4.0,4.0,58,0.00,,---,0.00,VWS V14.01,2013-04-16 10:42:00,
2013-04-16 05:43:00,63.5,48.5,27.91,SE,143,4.0,4.0,58,0.00,,---,0.00,VWS V14.01,2013-04-16 10:43:00,
2013-04-16 05:44:00,63.5,48.5,27.91,SSE,167,2.7,4.0,58,0.00,,---,0.00,VWS V14.01,2013-04-16 10:44:00,
2013-04-16 05:47:00,63.3,48.3,27.91,SSE,167,2.7,2.7,58,0.00,,---,0.00,VWS V14.01,2013-04-16 10:47:00,
2013-04-16 05:48:00,63.3,48.3,27.91,SSE,167,2.7,2.7,58,0.00,,---,0.00,VWS V14.01,2013-04-16 10:48:00,
2013-04-16 05:49:00,63.3,48.3,27.91,SSE,168,2.7,2.7,58,0.00,,---,0.00,VWS V14.01,2013-04-16 10:49:00,
2013-04-16 05:52:00,63.3,48.3,27.94,South,169,2.7,5.4,58,0.00,,---,0.00,VWS V14.01,2013-04-16 10:52:00,
2013-04-16 05:53:00,63.3,48.3,27.94,South,169,3.1,3.1,58,0.00,,---,0.00,VWS V14.01,2013-04-16 10:53:00,
2013-04-16 05:54:00,63.3,48.3,27.91,South,169,3.1,3.1,58,0.00,,---,0.00,VWS V14.01,2013-04-16 10:54:00,
2013-04-16 05:57:00,63.3,48.3,27.91,South,169,0.0,0.0,58,0.00,,---,0.00,VWS V14.01,2013-04-16 10:57:00,
2013-04-16 05:58:00,63.3,48.3,27.91,South,169,2.7,2.7,58,0.00,,---,0.00,VWS V14.01,2013-04-16 10:58:00,
2013-04-16 05:59:00,63.3,48.3,27.91,South,169,2.7,2.7,58,0.00,,---,0.00,VWS V14.01,2013-04-16 10:59:00,
2013-04-16 06:02:00,63.1,49.0,27.91,South,169,2.7,2.7,60,0.00,,---,0.00,VWS V14.01,2013-04-16 11:02:00,
2013-04-16 06:03:00,63.1,49.0,27.91,South,169,2.7,2.7,60,0.00,,---,0.00,VWS V14.01,2013-04-16 11:03:00,
2013-04-16 06:04:00,63.1,49.0,27.91,South,169,2.7,2.7,60,0.00,,---,0.00,VWS V14.01,2013-04-16 11:04:00,
2013-04-16 06:07:00,63.1,49.0,27.91,South,169,0.0,0.0,60,0.00,,---,0.00,VWS V14.01,2013-04-16 11:07:00,
2013-04-16 06:08:00,63.1,49.0,27.91,South,169,0.0,0.0,60,0.00,,---,0.00,VWS V14.01,2013-04-16 11:08:00,
2013-04-16 06:09:00,63.0,48.9,27.94,South,169,2.7,2.7,60,0.00,,---,0.00,VWS V14.01,2013-04-16 11:09:00,
2013-04-16 06:12:00,63.0,48.9,27.94,South,169,4.0,4.0,60,0.00,,---,0.00,VWS V14.01,2013-04-16 11:12:00,
2013-04-16 06:13:00,63.0,49.3,27.94,South,169,4.0,4.0,61,0.00,,---,0.00,VWS V14.01,2013-04-16 11:13:00,
2013-04-16 06:14:00,62.8,49.2,27.94,South,169,4.0,4.0,61,0.00,,---,0.00,VWS V14.01,2013-04-16 11:14:00,
2013-04-16 06:17:00,62.8,49.2,27.94,South,169,2.2,3.1,61,0.00,,---,0.00,VWS V14.01,2013-04-16 11:17:00,
2013-04-16 06:18:00,62.8,49.2,27.94,South,169,0.0,2.2,61,0.00,,---,0.00,VWS V14.01,2013-04-16 11:18:00,
2013-04-16 06:19:00,62.8,49.2,27.94,South,169,0.0,0.0,61,0.00,,---,0.00,VWS V14.01,2013-04-16 11:19:00,
2013-04-16 06:20:00,62.8,49.2,27.94,South,169,0.0,0.0,61,0.00,,---,0.00,VWS V14.01,2013-04-16 11:20:00,
2013-04-16 06:22:00,62.8,49.2,27.94,South,169,0.0,0.0,61,0.00,,---,0.00,VWS V14.01,2013-04-16 11:22:00,
2013-04-16 06:23:00,62.8,49.2,27.94,South,169,0.0,0.0,61,0.00,,---,0.00,VWS V14.01,2013-04-16 11:23:00,
2013-04-16 06:24:00,62.6,49.0,27.94,South,169,0.0,0.0,61,0.00,,---,0.00,VWS V14.01,2013-04-16 11:24:00,
2013-04-16 06:25:00,62.6,49.0,27.94,South,169,0.0,0.0,61,0.00,,---,0.00,VWS V14.01,2013-04-16 11:25:00,
2013-04-16 06:27:00,62.6,49.0,27.94,South,169,2.7,2.7,61,0.00,,---,0.00,VWS V14.01,2013-04-16 11:27:00,
2013-04-16 06:29:00,62.6,49.0,27.94,South,169,0.0,2.7,61,0.00,,---,0.00,VWS V14.01,2013-04-16 11:29:00,
2013-04-16 06:30:00,62.6,49.4,27.94,South,169,0.0,0.0,62,0.00,,---,0.00,VWS V14.01,2013-04-16 11:30:00,
2013-04-16 06:33:00,62.6,49.4,27.94,SSE,157,4.0,4.0,62,0.00,,---,0.00,VWS V14.01,2013-04-16 11:33:00,
2013-04-16 06:34:00,62.6,49.4,27.94,SSE,157,4.0,4.0,62,0.00,,---,0.00,VWS V14.01,2013-04-16 11:34:00,
2013-04-16 06:35:00,62.6,49.4,27.94,SSE,157,4.0,4.0,62,0.00,,---,0.00,VWS V14.01,2013-04-16 11:35:00,
2013-04-16 06:38:00,62.6,49.4,27.94,SSE,157,4.0,4.0,62,0.00,,---,0.00,VWS V14.01,2013-04-16 11:38:00,
2013-04-16 06:39:00,63.0,50.2,27.94,SSE,157,4.0,4.0,63,0.00,,---,0.00,VWS V14.01,2013-04-16 11:39:00,
2013-04-16 06:40:00,63.0,50.2,27.94,South,169,4.0,4.0,63,0.00,,---,0.00,VWS V14.01,2013-04-16 11:40:00,
2013-04-16 06:43:00,63.0,50.6,27.94,South,180,7.2,7.2,64,0.00,,---,0.00,VWS V14.01,2013-04-16 11:43:00,
2013-04-16 06:44:00,63.0,50.6,27.94,SSE,156,3.6,3.6,64,0.00,,---,0.00,VWS V14.01,2013-04-16 11:44:00,
2013-04-16 06:45:00,63.0,50.6,27.94,SSE,156,3.6,3.6,64,0.00,,---,0.00,VWS V14.01,2013-04-16 11:45:00,
2013-04-16 06:48:00,63.0,50.2,27.94,SSE,155,2.7,2.7,63,0.00,,---,0.00,VWS V14.01,2013-04-16 11:48:00,
2013-04-16 06:49:00,63.0,50.2,27.94,SSE,155,2.7,2.7,63,0.00,,---,0.00,VWS V14.01,2013-04-16 11:49:00,
2013-04-16 06:50:00,63.0,50.2,27.94,SSE,156,4.9,4.9,63,0.00,,---,0.00,VWS V14.01,2013-04-16 11:50:00,
2013-04-16 06:51:00,63.0,50.2,27.94,SSE,156,4.9,4.9,63,0.00,,---,0.00,VWS V14.01,2013-04-16 11:51:00,
2013-04-16 06:54:00,63.0,50.2,27.94,SSE,159,2.2,2.2,63,0.00,,---,0.00,VWS V14.01,2013-04-16 11:54:00,
2013-04-16 06:55:00,63.1,50.8,27.94,South,178,5.4,5.4,64,0.00,,---,0.00,VWS V14.01,2013-04-16 11:55:00,
2013-04-16 06:56:00,63.1,50.8,27.94,South,178,5.4,5.4,64,0.00,,---,0.00,VWS V14.01,2013-04-16 11:56:00,
2013-04-16 06:59:00,63.1,50.8,27.94,South,178,5.4,5.4,64,0.00,,---,0.00,VWS V14.01,2013-04-16 11:59:00,
2013-04-16 07:00:00,63.1,50.8,27.94,SSE,164,4.9,5.4,64,0.00,,---,0.00,VWS V14.01,2013-04-16 12:00:00,
2013-04-16 07:01:00,63.1,50.8,27.94,South,173,5.8,5.8,64,0.00,,---,0.00,VWS V14.01,2013-04-16 12:01:00,
2013-04-16 07:04:00,63.5,50.7,27.94,South,171,5.4,5.4,63,0.00,,---,0.00,VWS V14.01,2013-04-16 12:04:00,
2013-04-16 07:05:00,63.5,50.7,27.94,South,171,5.4,5.4,63,0.00,,---,0.00,VWS V14.01,2013-04-16 12:05:00,
2013-04-16 07:06:00,63.7,50.9,27.94,South,171,5.4,5.4,63,0.00,,---,0.00,VWS V14.01,2013-04-16 12:06:00,
2013-04-16 07:07:00,63.7,50.9,27.94,South,171,5.4,5.4,63,0.00,,---,0.00,VWS V14.01,2013-04-16 12:07:00,
2013-04-16 07:09:00,63.7,50.9,27.94,SSE,164,3.6,4.5,63,0.00,,---,0.00,VWS V14.01,2013-04-16 12:09:00,
2013-04-16 07:10:00,63.7,50.9,27.91,SSE,164,3.6,4.5,63,0.00,,---,0.00,VWS V14.01,2013-04-16 12:10:00,
2013-04-16 07:11:00,63.7,50.9,27.91,SSE,164,3.6,3.6,63,0.00,,---,0.00,VWS V14.01,2013-04-16 12:11:00,
2013-04-16 07:12:00,63.7,50.9,27.91,SSE,164,3.6,3.6,63,0.00,,---,0.00,VWS V14.01,2013-04-16 12:12:00,
2013-04-16 07:14:00,63.9,51.0,27.91,South,170,4.9,4.9,63,0.00,,---,0.00,VWS V14.01,2013-04-16 12:14:00,
2013-04-16 07:15:00,63.9,51.0,27.91,South,181,3.1,4.9,63,0.00,,---,0.00,VWS V14.01,2013-04-16 12:15:00,
2013-04-16 07:16:00,63.9,51.0,27.91,South,181,3.1,3.1,63,0.00,,---,0.00,VWS V14.01,2013-04-16 12:16:00,
2013-04-16 07:17:00,63.9,51.0,27.91,South,181,3.1,3.1,63,0.00,,---,0.00,VWS V14.01,2013-04-16 12:17:00,
2013-04-16 07:19:00,63.9,51.0,27.91,South,171,6.3,6.3,63,0.00,,---,0.00,VWS V14.01,2013-04-16 12:19:00,
2013-04-16 07:20:00,63.9,51.0,27.91,South,171,6.3,6.3,63,0.00,,---,0.00,VWS V14.01,2013-04-16 12:20:00,
2013-04-16 07:21:00,63.9,51.0,27.91,South,171,6.3,6.3,63,0.00,,---,0.00,VWS V14.01,2013-04-16 12:21:00,
2013-04-16 07:22:00,64.0,50.8,27.91,SE,143,5.4,5.4,62,0.00,,---,0.00,VWS V14.01,2013-04-16 12:22:00,
2013-04-16 07:25:00,64.0,50.8,27.94,South,183,6.3,6.3,62,0.00,,---,0.00,VWS V14.01,2013-04-16 12:25:00,
2013-04-16 07:26:00,64.0,50.8,27.94,SE,145,3.1,3.1,62,0.00,,---,0.00,VWS V14.01,2013-04-16 12:26:00,
2013-04-16 07:27:00,64.0,50.8,27.94,SE,145,3.1,3.1,62,0.00,,---,0.00,VWS V14.01,2013-04-16 12:27:00,
2013-04-16 07:30:00,64.2,50.5,27.94,South,170,5.4,5.4,61,0.00,,---,0.00,VWS V14.01,2013-04-16 12:30:00,
2013-04-16 07:31:00,64.4,50.2,27.94,South,170,5.4,5.4,60,0.00,,---,0.00,VWS V14.01,2013-04-16 12:31:00,
2013-04-16 07:32:00,64.4,50.2,27.94,South,170,5.4,5.4,60,0.00,,---,0.00,VWS V14.01,2013-04-16 12:32:00,
2013-04-16 07:35:00,64.6,50.4,27.94,WSW,238,2.2,2.2,60,0.00,,---,0.00,VWS V14.01,2013-04-16 12:35:00,
2013-04-16 07:36:00,64.6,50.4,27.94,SSE,168,3.6,3.6,60,0.00,,---,0.00,VWS V14.01,2013-04-16 12:36:00,
2013-04-16 07:37:00,64.6,50.4,27.94,SSE,168,3.6,3.6,60,0.00,,---,0.00,VWS V14.01,2013-04-16 12:37:00,
2013-04-16 07:38:00,64.6,50.4,27.94,SSE,168,3.6,3.6,60,0.00,,---,0.00,VWS V14.01,2013-04-16 12:38:00,
2013-04-16 07:40:00,64.6,50.4,27.94,SSE,163,3.6,3.6,60,0.00,,---,0.00,VWS V14.01,2013-04-16 12:40:00,
2013-04-16 07:41:00,64.8,50.1,27.94,SSE,163,3.6,3.6,59,0.00,,---,0.00,VWS V14.01,2013-04-16 12:41:00,
2013-04-16 07:42:00,64.8,50.1,27.94,South,175,3.6,3.6,59,0.00,,---,0.00,VWS V14.01,2013-04-16 12:42:00,
2013-04-16 07:43:00,64.8,50.1,27.94,South,175,3.6,3.6,59,0.00,,---,0.00,VWS V14.01,2013-04-16 12:43:00,
2013-04-16 07:45:00,64.8,50.1,27.94,South,175,3.1,3.1,59,0.00,,---,0.00,VWS V14.01,2013-04-16 12:45:00,
2013-04-16 07:46:00,64.8,50.1,27.94,South,175,3.1,3.1,59,0.00,,---,0.00,VWS V14.01,2013-04-16 12:46:00,
2013-04-16 07:47:00,64.9,50.7,27.94,South,175,3.1,3.1,60,0.00,,---,0.00,VWS V14.01,2013-04-16 12:47:00,
2013-04-16 07:48:00,64.9,50.7,27.94,South,175,3.1,3.1,60,0.00,,---,0.00,VWS V14.01,2013-04-16 12:48:00,
2013-04-16 07:50:00,64.9,50.7,27.94,SSE,167,6.7,6.7,60,0.00,,---,0.00,VWS V14.01,2013-04-16 12:50:00,
2013-04-16 07:51:00,64.9,50.7,27.94,SSE,167,6.7,6.7,60,0.00,,---,0.00,VWS V14.01,2013-04-16 12:51:00,
2013-04-16 07:52:00,65.5,50.8,27.94,South,169,5.4,6.7,59,0.00,,---,0.00,VWS V14.01,2013-04-16 12:52:00,
2013-04-16 07:53:00,65.5,50.8,27.94,South,169,5.4,6.7,59,0.00,,---,0.00,VWS V14.01,2013-04-16 12:53:00,
2013-04-16 07:55:00,65.5,50.8,27.96,South,169,5.4,5.4,59,0.00,,---,0.00,VWS V14.01,2013-04-16 12:55:00,
2013-04-16 07:56:00,65.8,50.7,27.96,South,177,7.6,7.6,58,0.00,,---,0.00,VWS V14.01,2013-04-16 12:56:00,
2013-04-16 07:57:00,65.8,50.7,27.96,South,177,7.6,7.6,58,0.00,,---,0.00,VWS V14.01,2013-04-16 12:57:00,
2013-04-16 07:58:00,66.2,50.1,27.96,South,177,7.6,7.6,56,0.00,,---,0.00,VWS V14.01,2013-04-16 12:58:00,
2013-04-16 08:00:00,66.4,49.7,27.96,South,185,7.2,7.2,55,0.00,,---,0.00,VWS V14.01,2013-04-16 13:00:00,
2013-04-16 08:02:00,66.4,49.7,27.96,SSE,153,4.0,4.0,55,0.00,,---,0.00,VWS V14.01,2013-04-16 13:02:00,
2013-04-16 08:03:00,66.4,49.7,27.96,SSE,153,4.0,4.0,55,0.00,,---,0.00,VWS V14.01,2013-04-16 13:03:00,
2013-04-16 08:05:00,66.4,49.7,27.96,SE,127,4.9,4.9,55,0.00,,---,0.00,VWS V14.01,2013-04-16 13:05:00,
2013-04-16 08:07:00,66.4,49.7,27.96,South,171,3.6,3.6,55,0.00,,---,0.00,VWS V14.01,2013-04-16 13:07:00,
2013-04-16 08:08:00,66.9,48.7,27.96,SSE,149,5.8,5.8,52,0.00,,---,0.00,VWS V14.01,2013-04-16 13:08:00,
2013-04-16 08:10:00,67.3,49.1,27.94,SSE,153,3.6,6.3,52,0.00,,---,0.00,VWS V14.01,2013-04-16 13:10:00,
2013-04-16 08:12:00,67.3,49.1,27.94,SSE,153,3.6,3.6,52,0.00,,---,0.00,VWS V14.01,2013-04-16 13:12:00,
2013-04-16 08:13:00,67.3,49.1,27.94,SSE,153,3.6,3.6,52,0.00,,---,0.00,VWS V14.01,2013-04-16 13:13:00,
2013-04-16 08:16:00,67.3,48.5,27.94,SE,145,6.3,6.3,51,0.00,,---,0.00,VWS V14.01,2013-04-16 13:16:00,
2013-04-16 08:17:00,67.3,48.5,27.94,SE,145,6.3,6.3,51,0.00,,---,0.00,VWS V14.01,2013-04-16 13:17:00,
2013-04-16 08:18:00,67.3,48.5,27.94,SSE,159,2.7,3.1,51,0.00,,---,0.00,VWS V14.01,2013-04-16 13:18:00,
2013-04-16 08:21:00,67.3,48.5,27.94,South,186,5.8,5.8,51,0.00,,---,0.00,VWS V14.01,2013-04-16 13:21:00,
2013-04-16 08:22:00,67.5,47.7,27.94,South,186,5.8,5.8,49,0.00,,---,0.00,VWS V14.01,2013-04-16 13:22:00,
2013-04-16 08:23:00,67.6,47.8,27.94,SSE,161,4.9,4.9,49,0.00,,---,0.00,VWS V14.01,2013-04-16 13:23:00,
2013-04-16 08:26:00,67.6,47.8,27.94,South,171,4.9,4.9,49,0.00,,---,0.00,VWS V14.01,2013-04-16 13:26:00,
2013-04-16 08:27:00,67.6,47.8,27.94,South,172,5.4,5.4,49,0.00,,---,0.00,VWS V14.01,2013-04-16 13:27:00,
2013-04-16 08:28:00,67.6,47.8,27.94,SSE,165,7.6,7.6,49,0.00,,---,0.00,VWS V14.01,2013-04-16 13:28:00,
2013-04-16 08:29:00,67.6,47.8,27.94,SSE,160,5.8,7.6,49,0.00,,---,0.00,VWS V14.01,2013-04-16 13:29:00,
2013-04-16 08:32:00,67.5,47.1,27.94,South,173,4.0,5.4,48,0.00,,---,0.00,VWS V14.01,2013-04-16 13:32:00,
2013-04-16 08:33:00,67.5,47.1,27.94,SSE,158,3.1,3.1,48,0.00,,---,0.00,VWS V14.01,2013-04-16 13:33:00,
2013-04-16 08:34:00,67.5,47.1,27.94,SSE,158,3.1,3.1,48,0.00,,---,0.00,VWS V14.01,2013-04-16 13:34:00,
2013-04-16 08:37:00,67.8,48.5,27.94,SSE,158,3.1,3.1,50,0.00,,---,0.00,VWS V14.01,2013-04-16 13:37:00,
2013-04-16 08:38:00,67.8,48.5,27.94,SSE,158,3.1,3.1,50,0.00,,---,0.00,VWS V14.01,2013-04-16 13:38:00,
2013-04-16 08:39:00,67.8,48.0,27.94,South,187,5.8,5.8,49,0.00,,---,0.00,VWS V14.01,2013-04-16 13:39:00,
2013-04-16 08:42:00,67.8,47.4,27.94,SE,138,7.6,7.6,48,0.00,,---,0.00,VWS V14.01,2013-04-16 13:42:00,
2013-04-16 08:43:00,67.8,47.4,27.94,West,277,6.3,7.6,48,0.00,,---,0.00,VWS V14.01,2013-04-16 13:43:00,
2013-04-16 08:44:00,67.8,47.4,27.96,West,277,6.3,6.3,48,0.00,,---,0.00,VWS V14.01,2013-04-16 13:44:00,
2013-04-16 08:47:00,68.2,47.2,27.96,SSE,149,5.4,5.4,47,0.00,,---,0.00,VWS V14.01,2013-04-16 13:47:00,
2013-04-16 08:48:00,68.0,47.0,27.96,SSE,149,5.4,5.4,47,0.00,,---,0.00,VWS V14.01,2013-04-16 13:48:00,
2013-04-16 08:50:00,68.0,47.0,27.96,SSE,149,5.4,5.4,47,0.00,,---,0.00,VWS V14.01,2013-04-16 13:50:00,
2013-04-16 08:52:00,68.0,47.6,27.96,South,175,4.0,4.0,48,0.00,,---,0.00,VWS V14.01,2013-04-16 13:52:00,
2013-04-16 08:53:00,68.0,47.6,27.96,SSE,149,5.8,5.8,48,0.00,,---,0.00,VWS V14.01,2013-04-16 13:53:00,
2013-04-16 08:55:00,68.0,47.6,27.99,SSE,167,5.8,5.8,48,0.00,,---,0.00,VWS V14.01,2013-04-16 13:55:00,
2013-04-16 08:57:00,68.2,48.3,27.99,SSE,167,5.8,5.8,49,0.00,,---,0.00,VWS V14.01,2013-04-16 13:57:00,
2013-04-16 08:58:00,68.2,48.3,27.99,SSE,167,5.8,5.8,49,0.00,,---,0.00,VWS V14.01,2013-04-16 13:58:00,
2013-04-16 09:00:00,68.4,47.4,27.99,SSE,167,5.8,5.8,47,0.00,,---,0.00,VWS V14.01,2013-04-16 14:00:00,
2013-04-16 09:02:00,68.4,47.4,27.99,SSE,167,5.8,5.8,47,0.00,,---,0.00,VWS V14.01,2013-04-16 14:02:00,
2013-04-16 09:03:00,68.4,47.4,27.99,SE,144,8.1,8.1,47,0.00,,---,0.00,VWS V14.01,2013-04-16 14:03:00,
2013-04-16 09:05:00,68.2,47.2,27.99,SE,144,8.1,8.1,47,0.00,,---,0.00,VWS V14.01,2013-04-16 14:05:00,
2013-04-16 09:07:00,68.2,47.2,27.99,SSE,153,6.3,6.3,47,0.00,,---,0.00,VWS V14.01,2013-04-16 14:07:00,
2013-04-16 09:08:00,68.2,47.2,27.99,SE,142,4.9,4.9,47,0.00,,---,0.00,VWS V14.01,2013-04-16 14:08:00,
2013-04-16 09:11:00,68.2,47.2,27.99,SE,142,4.9,4.9,47,0.00,,---,0.00,VWS V14.01,2013-04-16 14:11:00,
2013-04-16 09:12:00,68.2,47.2,27.99,SE,142,4.9,4.9,47,0.00,,---,0.00,VWS V14.01,2013-04-16 14:12:00,
2013-04-16 09:13:00,68.2,47.2,27.99,South,183,15.4,15.4,47,0.00,,---,0.00,VWS V14.01,2013-04-16 14:13:00,
2013-04-16 09:16:00,68.2,47.2,27.99,South,178,8.7,8.7,47,0.00,,---,0.00,VWS V14.01,2013-04-16 14:16:00,
2013-04-16 09:17:00,68.0,46.5,27.99,South,178,8.7,8.7,46,0.00,,---,0.00,VWS V14.01,2013-04-16 14:17:00,
2013-04-16 09:18:00,68.0,46.5,27.99,South,178,8.7,8.7,46,0.00,,---,0.00,VWS V14.01,2013-04-16 14:18:00,
2013-04-16 09:21:00,68.0,46.5,27.99,South,172,3.6,5.8,46,0.00,,---,0.00,VWS V14.01,2013-04-16 14:21:00,
2013-04-16 09:22:00,68.0,47.0,27.99,South,172,3.6,3.6,47,0.00,,---,0.00,VWS V14.01,2013-04-16 14:22:00,
2013-04-16 09:23:00,68.0,47.0,27.99,South,172,3.6,3.6,47,0.00,,---,0.00,VWS V14.01,2013-04-16 14:23:00,
2013-04-16 09:24:00,68.0,47.0,27.96,SE,145,8.1,8.1,47,0.00,,---,0.00,VWS V14.01,2013-04-16 14:24:00,
2013-04-16 09:26:00,68.0,47.0,27.96,South,179,3.6,8.1,47,0.00,,---,0.00,VWS V14.01,2013-04-16 14:26:00,
2013-04-16 09:27:00,68.0,47.0,27.96,SE,136,5.4,5.4,47,0.00,,---,0.00,VWS V14.01,2013-04-16 14:27:00,
2013-04-16 09:28:00,68.0,47.0,27.96,SE,136,5.4,5.4,47,0.00,,---,0.00,VWS V14.01,2013-04-16 14:28:00,
2013-04-16 09:29:00,68.0,47.0,27.96,SSE,155,4.9,5.4,47,0.00,,---,0.00,VWS V14.01,2013-04-16 14:29:00,
2013-04-16 09:31:00,68.0,48.2,27.96,SSE,155,4.9,4.9,49,0.00,,---,0.00,VWS V14.01,2013-04-16 14:31:00,
2013-04-16 09:32:00,68.0,48.7,27.96,SSE,155,4.9,4.9,50,0.00,,---,0.00,VWS V14.01,2013-04-16 14:32:00,
2013-04-16 09:33:00,68.0,48.7,27.96,SSE,155,4.9,4.9,50,0.00,,---,0.00,VWS V14.01,2013-04-16 14:33:00,
2013-04-16 09:34:00,68.0,48.7,27.96,SSE,155,4.9,4.9,50,0.00,,---,0.00,VWS V14.01,2013-04-16 14:34:00,
2013-04-16 09:36:00,68.2,47.8,27.96,SSE,155,3.6,3.6,48,0.00,,---,0.00,VWS V14.01,2013-04-16 14:36:00,
2013-04-16 09:37:00,68.2,47.8,27.96,SSE,155,3.6,3.6,48,0.00,,---,0.00,VWS V14.01,2013-04-16 14:37:00,
2013-04-16 09:38:00,68.2,47.8,27.96,SSE,155,3.6,3.6,48,0.00,,---,0.00,VWS V14.01,2013-04-16 14:38:00,
2013-04-16 09:39:00,68.2,47.8,27.96,SSE,155,3.6,3.6,48,0.00,,---,0.00,VWS V14.01,2013-04-16 14:39:00,
2013-04-16 09:42:00,68.4,47.4,27.96,SSE,155,3.6,3.6,47,0.00,,---,0.00,VWS V14.01,2013-04-16 14:42:00,
2013-04-16 09:43:00,68.4,47.4,27.96,SSE,155,3.6,3.6,47,0.00,,---,0.00,VWS V14.01,2013-04-16 14:43:00,
2013-04-16 09:44:00,68.5,47.0,27.96,SSE,155,3.6,3.6,46,0.00,,---,0.00,VWS V14.01,2013-04-16 14:44:00,
2013-04-16 09:47:00,68.5,47.0,27.96,SE,142,5.8,5.8,46,0.00,,---,0.00,VWS V14.01,2013-04-16 14:47:00,
2013-04-16 09:48:00,68.5,47.0,27.96,SE,142,5.8,5.8,46,0.00,,---,0.00,VWS V14.01,2013-04-16 14:48:00,
2013-04-16 09:49:00,68.5,48.1,27.96,South,170,5.4,5.4,48,0.00,,---,0.00,VWS V14.01,2013-04-16 14:49:00,
2013-04-16 09:52:00,68.5,47.5,27.96,South,170,5.4,5.4,47,0.00,,---,0.00,VWS V14.01,2013-04-16 14:52:00,
2013-04-16 09:53:00,68.5,47.5,27.96,South,170,5.4,5.4,47,0.00,,---,0.00,VWS V14.01,2013-04-16 14:53:00,
2013-04-16 09:54:00,68.5,47.5,27.96,South,170,5.4,5.4,47,0.00,,---,0.00,VWS V14.01,2013-04-16 14:54:00,
2013-04-16 09:57:00,68.5,47.0,27.96,SSE,147,3.6,5.4,46,0.00,,---,0.00,VWS V14.01,2013-04-16 14:57:00,
2013-04-16 09:58:00,68.5,47.0,27.96,SSE,147,3.6,3.6,46,0.00,,---,0.00,VWS V14.01,2013-04-16 14:58:00,
2013-04-16 09:59:00,68.5,47.5,27.96,SSE,168,5.8,5.8,47,0.00,,---,0.00,VWS V14.01,2013-04-16 14:59:00,
2013-04-16 10:02:00,68.5,47.5,27.96,South,173,5.8,5.8,47,0.00,,---,0.00,VWS V14.01,2013-04-16 15:02:00,
2013-04-16 10:03:00,68.5,47.5,27.96,South,174,3.6,3.6,47,0.00,,---,0.00,VWS V14.01,2013-04-16 15:03:00,
2013-04-16 10:04:00,68.5,47.5,27.96,South,174,3.6,3.6,47,0.00,,---,0.00,VWS V14.01,2013-04-16 15:04:00,
2013-04-16 10:05:00,68.5,47.5,27.96,South,174,3.6,3.6,47,0.00,,---,0.00,VWS V14.01,2013-04-16 15:05:00,
2013-04-16 10:07:00,68.9,47.9,27.96,South,174,3.6,3.6,47,0.00,,---,0.00,VWS V14.01,2013-04-16 15:07:00,
2013-04-16 10:08:00,68.9,47.9,27.96,South,174,3.6,3.6,47,0.00,,---,0.00,VWS V14.01,2013-04-16 15:08:00,
2013-04-16 10:09:00,68.9,47.9,27.96,South,174,3.6,3.6,47,0.00,,---,0.00,VWS V14.01,2013-04-16 15:09:00,
2013-04-16 10:10:00,68.9,47.9,27.96,SE,144,5.8,5.8,47,0.00,,---,0.00,VWS V14.01,2013-04-16 15:10:00,
2013-04-16 10:12:00,68.9,47.9,27.96,South,186,10.1,10.1,47,0.00,,---,0.00,VWS V14.01,2013-04-16 15:12:00,
2013-04-16 10:13:00,68.9,47.9,27.96,South,186,10.1,10.1,47,0.00,,---,0.00,VWS V14.01,2013-04-16 15:13:00,
2013-04-16 10:14:00,69.3,47.6,27.96,South,180,4.9,10.1,46,0.00,,---,0.00,VWS V14.01,2013-04-16 15:14:00,
2013-04-16 10:15:00,69.3,47.6,27.96,South,180,4.9,10.1,46,0.00,,---,0.00,VWS V14.01,2013-04-16 15:15:00,
2013-04-16 10:17:00,69.3,47.6,27.96,South,172,7.2,7.2,46,0.00,,---,0.00,VWS V14.01,2013-04-16 15:17:00,
2013-04-16 10:18:00,69.3,47.6,27.96,South,172,7.2,7.2,46,0.00,,---,0.00,VWS V14.01,2013-04-16 15:18:00,
2013-04-16 10:19:00,69.4,47.8,27.96,SE,145,4.0,4.0,46,0.00,,---,0.00,VWS V14.01,2013-04-16 15:19:00,
2013-04-16 10:20:00,69.4,47.8,27.96,SE,145,4.0,4.0,46,0.00,,---,0.00,VWS V14.01,2013-04-16 15:20:00,
2013-04-16 10:22:00,69.4,47.8,27.96,SE,145,4.0,4.0,46,0.00,,---,0.00,VWS V14.01,2013-04-16 15:22:00,
2013-04-16 10:23:00,69.6,48.0,27.99,SSE,159,7.6,7.6,46,0.00,,---,0.00,VWS V14.01,2013-04-16 15:23:00,
2013-04-16 10:25:00,69.6,47.4,27.99,SSE,159,7.6,7.6,45,0.00,,---,0.00,VWS V14.01,2013-04-16 15:25:00,
2013-04-16 10:28:00,69.4,47.2,27.99,South,169,5.4,7.6,45,0.00,,---,0.00,VWS V14.01,2013-04-16 15:28:00,
2013-04-16 10:29:00,69.4,47.2,27.99,South,169,5.4,5.4,45,0.00,,---,0.00,VWS V14.01,2013-04-16 15:29:00,
2013-04-16 10:30:00,69.4,47.2,27.99,SE,137,2.7,2.7,45,0.00,,---,0.00,VWS V14.01,2013-04-16 15:30:00,
2013-04-16 10:33:00,69.4,47.2,27.99,SSE,162,5.4,5.4,45,0.00,,---,0.00,VWS V14.01,2013-04-16 15:33:00,
2013-04-16 10:34:00,69.4,47.2,27.99,SSE,162,5.4,5.4,45,0.00,,---,0.00,VWS V14.01,2013-04-16 15:34:00,
2013-04-16 10:35:00,69.4,47.2,27.99,SSE,162,5.4,5.4,45,0.00,,---,0.00,VWS V14.01,2013-04-16 15:35:00,
2013-04-16 10:37:00,69.4,47.2,27.99,SE,145,7.6,7.6,45,0.00,,---,0.00,VWS V14.01,2013-04-16 15:37:00,
2013-04-16 10:38:00,69.4,47.2,27.99,SSE,161,3.1,4.9,45,0.00,,---,0.00,VWS V14.01,2013-04-16 15:38:00,
2013-04-16 10:39:00,69.4,47.2,27.99,SSE,161,3.1,3.1,45,0.00,,---,0.00,VWS V14.01,2013-04-16 15:39:00,
2013-04-16 10:40:00,69.4,47.2,27.99,SSE,161,3.1,3.1,45,0.00,,---,0.00,VWS V14.01,2013-04-16 15:40:00,
2013-04-16 10:41:00,69.4,47.2,27.99,SSE,161,3.1,3.1,45,0.00,,---,0.00,VWS V14.01,2013-04-16 15:41:00,
2013-04-16 10:42:00,69.4,47.2,27.99,SSE,147,3.6,3.6,45,0.00,,---,0.00,VWS V14.01,2013-04-16 15:42:00,
2013-04-16 10:43:00,69.6,47.4,27.99,SSE,147,3.6,3.6,45,0.00,,---,0.00,VWS V14.01,2013-04-16 15:43:00,
2013-04-16 10:44:00,69.6,47.4,27.99,SSE,147,3.6,3.6,45,0.00,,---,0.00,VWS V14.01,2013-04-16 15:44:00,
2013-04-16 10:45:00,69.6,47.4,27.99,SE,135,4.9,4.9,45,0.00,,---,0.00,VWS V14.01,2013-04-16 15:45:00,
2013-04-16 10:46:00,69.6,47.4,27.99,SE,135,4.9,4.9,45,0.00,,---,0.00,VWS V14.01,2013-04-16 15:46:00,
2013-04-16 10:47:00,69.8,47.5,27.99,SSE,153,3.1,3.1,45,0.00,,---,0.00,VWS V14.01,2013-04-16 15:47:00,
2013-04-16 10:48:00,69.8,47.5,27.99,SSE,153,3.1,3.1,45,0.00,,---,0.00,VWS V14.01,2013-04-16 15:48:00,
2013-04-16 10:49:00,70.3,48.0,27.99,SSE,153,3.1,3.1,45,0.00,,---,0.00,VWS V14.01,2013-04-16 15:49:00,
2013-04-16 10:50:00,70.3,48.0,27.99,SSE,153,3.1,3.1,45,0.00,,---,0.00,VWS V14.01,2013-04-16 15:50:00,
2013-04-16 10:51:00,70.5,47.6,27.99,SSE,153,3.1,3.1,44,0.00,,---,0.00,VWS V14.01,2013-04-16 15:51:00,
2013-04-16 10:52:00,70.5,47.6,27.99,SSE,150,6.3,6.3,44,0.00,,---,0.00,VWS V14.01,2013-04-16 15:52:00,
2013-04-16 10:53:00,70.5,47.6,27.99,SSE,150,6.3,6.3,44,0.00,,---,0.00,VWS V14.01,2013-04-16 15:53:00,
2013-04-16 10:54:00,70.5,47.6,27.99,SSE,153,4.0,6.3,44,0.00,,---,0.00,VWS V14.01,2013-04-16 15:54:00,
2013-04-16 10:55:00,70.5,47.6,27.99,SSE,153,4.0,4.0,44,0.00,,---,0.00,VWS V14.01,2013-04-16 15:55:00,
2013-04-16 10:56:00,70.5,47.6,27.99,SSE,153,4.0,4.0,44,0.00,,---,0.00,VWS V14.01,2013-04-16 15:56:00,
2013-04-16 10:57:00,71.6,47.9,27.99,SSE,153,4.0,4.0,43,0.00,,---,0.00,VWS V14.01,2013-04-16 15:57:00,
2013-04-16 10:58:00,71.6,47.9,27.99,South,169,8.3,8.3,43,0.00,,---,0.00,VWS V14.01,2013-04-16 15:58:00,
2013-04-16 10:59:00,72.0,47.0,27.99,South,169,8.3,8.3,41,0.00,,---,0.00,VWS V14.01,2013-04-16 15:59:00,
2013-04-16 11:00:00,72.0,47.0,27.99,South,169,8.3,8.3,41,0.00,,---,0.00,VWS V14.01,2013-04-16 16:00:00,
2013-04-16 11:01:00,72.3,47.3,27.99,South,169,8.3,8.3,41,0.00,,---,0.00,VWS V14.01,2013-04-16 16:01:00,
2013-04-16 11:02:00,72.3,47.3,27.99,SE,145,4.9,8.3,41,0.00,,---,0.00,VWS V14.01,2013-04-16 16:02:00,
2013-04-16 11:03:00,73.0,46.6,27.99,SE,136,6.3,6.3,39,0.00,,---,0.00,VWS V14.01,2013-04-16 16:03:00,
2013-04-16 11:05:00,73.4,47.0,27.99,SSE,148,4.0,6.3,39,0.00,,---,0.00,VWS V14.01,2013-04-16 16:05:00,
2013-04-16 11:06:00,73.6,46.4,27.99,SE,138,3.1,3.1,38,0.00,,---,0.00,VWS V14.01,2013-04-16 16:06:00,
2013-04-16 11:07:00,73.6,46.4,27.99,SSE,153,5.8,5.8,38,0.00,,---,0.00,VWS V14.01,2013-04-16 16:07:00,
2013-04-16 11:09:00,73.6,46.4,27.99,SSE,153,5.8,5.8,38,0.00,,---,0.00,VWS V14.01,2013-04-16 16:09:00,
2013-04-16 11:10:00,73.6,46.4,27.99,SSE,153,5.8,5.8,38,0.00,,---,0.00,VWS V14.01,2013-04-16 16:10:00,
2013-04-16 11:11:00,73.6,46.4,27.99,SSE,153,5.8,5.8,38,0.00,,---,0.00,VWS V14.01,2013-04-16 16:11:00,
2013-04-16 11:13:00,73.9,45.3,27.94,NW,310,5.4,5.8,36,0.00,,---,0.00,VWS V14.01,2013-04-16 16:13:00,
2013-04-16 11:14:00,73.9,45.3,27.94,NW,310,5.4,5.4,36,0.00,,---,0.00,VWS V14.01,2013-04-16 16:14:00,
2013-04-16 11:15:00,73.8,44.4,27.94,NW,310,5.4,5.4,35,0.00,,---,0.00,VWS V14.01,2013-04-16 16:15:00,
2013-04-16 11:17:00,73.9,46.8,27.94,NW,310,5.4,5.4,38,0.00,,---,0.00,VWS V14.01,2013-04-16 16:17:00,
2013-04-16 11:18:00,73.9,46.8,27.94,NW,310,5.4,5.4,38,0.00,,---,0.00,VWS V14.01,2013-04-16 16:18:00,
2013-04-16 11:19:00,73.9,46.8,27.94,NW,310,5.4,5.4,38,0.00,,---,0.00,VWS V14.01,2013-04-16 16:19:00,
2013-04-16 11:20:00,73.9,46.8,27.94,SSE,157,5.8,5.8,38,0.00,,---,0.00,VWS V14.01,2013-04-16 16:20:00,
2013-04-16 11:22:00,73.9,46.8,27.94,SSE,162,5.8,5.8,38,0.00,,---,0.00,VWS V14.01,2013-04-16 16:22:00,
2013-04-16 11:24:00,73.9,45.3,27.94,SSE,162,5.8,5.8,36,0.00,,---,0.00,VWS V14.01,2013-04-16 16:24:00,
2013-04-16 11:25:00,73.9,45.3,27.94,SSE,154,5.8,5.8,36,0.00,,---,0.00,VWS V14.01,2013-04-16 16:25:00,
2013-04-16 11:27:00,74.1,46.2,27.96,SSE,158,5.4,5.8,37,0.00,,---,0.00,VWS V14.01,2013-04-16 16:27:00,
2013-04-16 11:29:00,74.1,44.0,27.96,SSE,158,5.4,5.4,34,0.00,,---,0.00,VWS V14.01,2013-04-16 16:29:00,
2013-04-16 11:30:00,74.1,44.0,27.96,South,169,6.3,6.3,34,0.00,,---,0.00,VWS V14.01,2013-04-16 16:30:00,
2013-04-16 11:32:00,74.3,44.9,27.96,South,169,6.3,6.3,35,0.00,,---,0.00,VWS V14.01,2013-04-16 16:32:00,
2013-04-16 11:34:00,74.3,44.9,27.96,SSE,155,6.3,6.3,35,0.00,,---,0.00,VWS V14.01,2013-04-16 16:34:00,
2013-04-16 11:35:00,74.3,44.9,27.96,SSE,155,6.3,6.3,35,0.00,,---,0.00,VWS V14.01,2013-04-16 16:35:00,
2013-04-16 11:37:00,74.3,44.9,27.96,SSE,161,5.4,5.4,35,0.00,,---,0.00,VWS V14.01,2013-04-16 16:37:00,
2013-04-16 11:39:00,74.3,44.9,27.96,SSE,156,3.6,3.6,35,0.00,,---,0.00,VWS V14.01,2013-04-16 16:39:00,
2013-04-16 11:40:00,74.3,44.9,27.94,SSE,156,3.6,3.6,35,0.00,,---,0.00,VWS V14.01,2013-04-16 16:40:00,
2013-04-16 11:42:00,74.1,44.0,27.94,ESE,110,3.1,3.1,34,0.00,,---,0.00,VWS V14.01,2013-04-16 16:42:00,
2013-04-16 11:43:00,74.1,44.0,27.94,ESE,110,3.1,3.1,34,0.00,,---,0.00,VWS V14.01,2013-04-16 16:43:00,
2013-04-16 11:44:00,74.1,44.0,27.94,ESE,110,3.1,3.1,34,0.00,,---,0.00,VWS V14.01,2013-04-16 16:44:00,
2013-04-16 11:45:00,74.1,44.0,27.94,ESE,110,3.1,3.1,34,0.00,,---,0.00,VWS V14.01,2013-04-16 16:45:00,
2013-04-16 11:47:00,74.1,44.0,27.94,SE,126,3.1,3.1,34,0.00,,---,0.00,VWS V14.01,2013-04-16 16:47:00,
2013-04-16 11:48:00,74.1,44.0,27.94,SE,126,3.1,3.1,34,0.00,,---,0.00,VWS V14.01,2013-04-16 16:48:00,
2013-04-16 11:49:00,74.8,46.8,27.94,SE,126,3.1,3.1,37,0.00,,---,0.00,VWS V14.01,2013-04-16 16:49:00,
2013-04-16 11:50:00,74.7,46.0,27.94,SE,126,3.1,3.1,36,0.00,,---,0.00,VWS V14.01,2013-04-16 16:50:00,
2013-04-16 11:53:00,75.0,44.8,27.94,SE,126,3.1,3.1,34,0.00,,---,0.00,VWS V14.01,2013-04-16 16:53:00,
2013-04-16 11:54:00,75.0,45.5,27.94,South,172,6.3,6.3,35,0.00,,---,0.00,VWS V14.01,2013-04-16 16:54:00,
2013-04-16 11:55:00,75.0,45.5,27.96,South,172,6.3,6.3,35,0.00,,---,0.00,VWS V14.01,2013-04-16 16:55:00,
2013-04-16 11:58:00,74.7,43.7,27.96,SSE,148,5.4,5.4,33,0.00,,---,0.00,VWS V14.01,2013-04-16 16:58:00,
2013-04-16 11:59:00,74.7,43.7,27.96,SSE,148,5.4,5.4,33,0.00,,---,0.00,VWS V14.01,2013-04-16 16:59:00,
2013-04-16 12:00:00,74.7,43.7,27.96,SSE,148,5.4,5.4,33,0.00,,---,0.00,VWS V14.01,2013-04-16 17:00:00,
2013-04-16 12:03:00,74.8,43.8,27.96,SE,139,3.1,3.1,33,0.00,,---,0.00,VWS V14.01,2013-04-16 17:03:00,
2013-04-16 12:04:00,74.8,43.8,27.96,SE,139,3.1,3.1,33,0.00,,---,0.00,VWS V14.01,2013-04-16 17:04:00,
2013-04-16 12:05:00,74.8,43.8,27.96,SSE,159,8.7,8.7,33,0.00,,---,0.00,VWS V14.01,2013-04-16 17:05:00,
2013-04-16 12:06:00,75.9,44.8,27.96,SSE,159,8.7,8.7,33,0.00,,---,0.00,VWS V14.01,2013-04-16 17:06:00,
2013-04-16 12:08:00,75.7,43.8,27.96,South,178,8.1,8.7,32,0.00,,---,0.00,VWS V14.01,2013-04-16 17:08:00,
2013-04-16 12:09:00,75.7,43.8,27.96,South,178,8.1,8.1,32,0.00,,---,0.00,VWS V14.01,2013-04-16 17:09:00,
2013-04-16 12:10:00,75.7,43.8,27.96,SSE,153,8.7,8.7,32,0.00,,---,0.00,VWS V14.01,2013-04-16 17:10:00,
2013-04-16 12:12:00,75.7,43.8,27.96,SSE,153,8.7,8.7,32,0.00,,---,0.00,VWS V14.01,2013-04-16 17:12:00,
2013-04-16 12:14:00,75.4,45.1,27.96,SSE,152,3.6,8.7,34,0.00,,---,0.00,VWS V14.01,2013-04-16 17:14:00,
2013-04-16 12:15:00,75.4,45.1,27.96,SSE,152,3.6,8.7,34,0.00,,---,0.00,VWS V14.01,2013-04-16 17:15:00,
2013-04-16 12:16:00,75.4,45.1,27.96,SSE,164,3.6,3.6,34,0.00,,---,0.00,VWS V14.01,2013-04-16 17:16:00,
2013-04-16 12:17:00,75.6,44.5,27.96,SSE,164,3.6,3.6,33,0.00,,---,0.00,VWS V14.01,2013-04-16 17:17:00,
2013-04-16 12:19:00,76.3,45.9,27.96,SSE,164,3.6,3.6,34,0.00,,---,0.00,VWS V14.01,2013-04-16 17:19:00,
2013-04-16 12:20:00,76.3,45.9,27.96,ESE,123,5.8,5.8,34,0.00,,---,0.00,VWS V14.01,2013-04-16 17:20:00,
2013-04-16 12:21:00,76.3,45.9,27.96,SSE,161,3.6,5.8,34,0.00,,---,0.00,VWS V14.01,2013-04-16 17:21:00,
2013-04-16 12:22:00,76.3,45.9,27.96,SSE,161,3.6,3.6,34,0.00,,---,0.00,VWS V14.01,2013-04-16 17:22:00,
2013-04-16 12:24:00,76.3,45.9,27.96,SSE,160,5.8,5.8,34,0.00,,---,0.00,VWS V14.01,2013-04-16 17:24:00,
2013-04-16 12:25:00,76.3,45.9,27.96,SSE,160,5.8,5.8,34,0.00,,---,0.00,VWS V14.01,2013-04-16 17:25:00,
2013-04-16 12:27:00,76.5,44.4,27.96,SSE,160,5.8,5.8,32,0.00,,---,0.00,VWS V14.01,2013-04-16 17:27:00,
2013-04-16 12:30:00,76.5,44.4,27.96,South,181,8.3,8.3,32,0.00,,---,0.00,VWS V14.01,2013-04-16 17:30:00,
2013-04-16 12:32:00,76.6,44.6,27.96,SSE,164,7.6,7.6,32,0.00,,---,0.00,VWS V14.01,2013-04-16 17:32:00,
2013-04-16 12:35:00,76.6,44.6,27.94,SSE,164,7.6,7.6,32,0.00,,---,0.00,VWS V14.01,2013-04-16 17:35:00,
2013-04-16 12:37:00,76.6,44.6,27.94,SSE,165,5.4,5.4,32,0.00,,---,0.00,VWS V14.01,2013-04-16 17:37:00,
2013-04-16 12:40:00,76.5,44.4,27.94,SSE,165,5.4,5.4,32,0.00,,---,0.00,VWS V14.01,2013-04-16 17:40:00,
2013-04-16 12:42:00,76.5,44.4,27.94,SE,136,8.1,8.1,32,0.00,,---,0.00,VWS V14.01,2013-04-16 17:42:00,
2013-04-16 12:45:00,77.2,46.7,27.94,South,189,2.7,2.7,34,0.00,,---,0.00,VWS V14.01,2013-04-16 17:45:00,
2013-04-16 12:46:00,77.2,46.7,27.94,NW,321,3.6,3.6,34,0.00,,---,0.00,VWS V14.01,2013-04-16 17:46:00,
2013-04-16 12:47:00,77.2,46.7,27.94,NW,321,3.6,3.6,34,0.00,,---,0.00,VWS V14.01,2013-04-16 17:47:00,
2013-04-16 12:50:00,77.7,45.5,27.94,South,190,8.3,8.3,32,0.00,,---,0.00,VWS V14.01,2013-04-16 17:50:00,
2013-04-16 12:51:00,77.7,44.7,27.94,South,183,7.6,8.3,31,0.00,,---,0.00,VWS V14.01,2013-04-16 17:51:00,
2013-04-16 12:53:00,77.7,44.7,27.94,South,183,7.6,7.6,31,0.00,,---,0.00,VWS V14.01,2013-04-16 17:53:00,
2013-04-16 12:55:00,77.7,44.7,27.94,SE,132,3.6,3.6,31,0.00,,---,0.00,VWS V14.01,2013-04-16 17:55:00,
2013-04-16 12:56:00,77.5,43.7,27.94,SE,132,3.6,3.6,30,0.00,,---,0.00,VWS V14.01,2013-04-16 17:56:00,
2013-04-16 12:58:00,77.5,43.7,27.94,SSE,166,6.3,6.3,30,0.00,,---,0.00,VWS V14.01,2013-04-16 17:58:00,
2013-04-16 13:00:00,77.5,44.5,27.94,SSE,166,6.3,6.3,31,0.00,,---,0.00,VWS V14.01,2013-04-16 18:00:00,
2013-04-16 13:01:00,77.5,44.5,27.94,South,180,4.0,4.0,31,0.00,,---,0.00,VWS V14.01,2013-04-16 18:01:00,
2013-04-16 13:03:00,77.5,44.5,27.94,South,180,4.0,4.0,31,0.00,,---,0.00,VWS V14.01,2013-04-16 18:03:00,
2013-04-16 13:05:00,78.4,45.3,27.94,SSE,163,4.0,4.0,31,0.00,,---,0.00,VWS V14.01,2013-04-16 18:05:00,
2013-04-16 13:06:00,78.4,45.3,27.94,SSE,163,4.0,4.0,31,0.00,,---,0.00,VWS V14.01,2013-04-16 18:06:00,
2013-04-16 13:07:00,79.2,45.1,27.94,SSE,163,4.0,4.0,30,0.00,,---,0.00,VWS V14.01,2013-04-16 18:07:00,
2013-04-16 13:08:00,79.2,45.1,27.94,SSE,158,6.3,6.3,30,0.00,,---,0.00,VWS V14.01,2013-04-16 18:08:00,
2013-04-16 13:10:00,79.7,45.6,27.94,SSE,158,6.3,6.3,30,0.00,,---,0.00,VWS V14.01,2013-04-16 18:10:00,
2013-04-16 13:11:00,79.7,45.6,27.94,SSE,158,6.3,6.3,30,0.00,,---,0.00,VWS V14.01,2013-04-16 18:11:00,
2013-04-16 13:12:00,79.7,45.6,27.94,SSE,157,5.4,5.4,30,0.00,,---,0.00,VWS V14.01,2013-04-16 18:12:00,
2013-04-16 13:13:00,79.7,45.6,27.94,SSE,157,5.4,5.4,30,0.00,,---,0.00,VWS V14.01,2013-04-16 18:13:00,
2013-04-16 13:16:00,79.5,41.7,27.94,SSE,166,8.3,8.3,26,0.00,,---,0.00,VWS V14.01,2013-04-16 18:16:00,
2013-04-16 13:17:00,79.5,41.7,27.94,SE,137,5.4,5.4,26,0.00,,---,0.00,VWS V14.01,2013-04-16 18:17:00,
2013-04-16 13:18:00,79.5,41.7,27.94,SE,137,5.4,5.4,26,0.00,,---,0.00,VWS V14.01,2013-04-16 18:18:00,
2013-04-16 13:21:00,79.7,45.6,27.94,SSE,149,4.0,4.0,30,0.00,,---,0.00,VWS V14.01,2013-04-16 18:21:00,
2013-04-16 13:22:00,79.7,45.6,27.94,SSE,149,4.0,4.0,30,0.00,,---,0.00,VWS V14.01,2013-04-16 18:22:00,
2013-04-16 13:23:00,79.7,45.6,27.94,South,183,5.4,5.4,30,0.00,,---,0.00,VWS V14.01,2013-04-16 18:23:00,
2013-04-16 13:26:00,79.2,44.2,27.94,South,176,5.8,5.8,29,0.00,,---,0.00,VWS V14.01,2013-04-16 18:26:00,
2013-04-16 13:27:00,79.0,43.1,27.94,South,176,5.8,5.8,28,0.00,,---,0.00,VWS V14.01,2013-04-16 18:27:00,
2013-04-16 13:28:00,78.8,43.0,27.94,South,176,5.8,5.8,28,0.00,,---,0.00,VWS V14.01,2013-04-16 18:28:00,
2013-04-16 13:31:00,78.8,43.0,27.94,South,176,5.8,5.8,28,0.00,,---,0.00,VWS V14.01,2013-04-16 18:31:00,
2013-04-16 13:32:00,78.8,43.0,27.94,South,176,5.8,5.8,28,0.00,,---,0.00,VWS V14.01,2013-04-16 18:32:00,
2013-04-16 13:33:00,78.1,44.2,27.94,SSE,160,6.3,6.3,30,0.00,,---,0.00,VWS V14.01,2013-04-16 18:33:00,
2013-04-16 13:36:00,77.9,44.0,27.94,SE,145,4.0,4.0,30,0.00,,---,0.00,VWS V14.01,2013-04-16 18:36:00,
2013-04-16 13:37:00,77.9,44.0,27.94,South,185,6.3,6.3,30,0.00,,---,0.00,VWS V14.01,2013-04-16 18:37:00,
2013-04-16 13:38:00,77.9,44.0,27.94,South,185,6.3,6.3,30,0.00,,---,0.00,VWS V14.01,2013-04-16 18:38:00,
2013-04-16 13:39:00,77.9,44.0,27.94,South,185,6.3,6.3,30,0.00,,---,0.00,VWS V14.01,2013-04-16 18:39:00,
2013-04-16 13:42:00,77.5,44.5,27.91,SSE,167,7.6,7.6,31,0.00,,---,0.00,VWS V14.01,2013-04-16 18:42:00,
2013-04-16 13:43:00,77.5,44.5,27.91,SSE,167,7.6,7.6,31,0.00,,---,0.00,VWS V14.01,2013-04-16 18:43:00,
2013-04-16 13:44:00,77.5,44.5,27.91,SSE,167,7.6,7.6,31,0.00,,---,0.00,VWS V14.01,2013-04-16 18:44:00,
2013-04-16 13:47:00,77.5,44.5,27.91,SSE,167,3.6,3.6,31,0.00,,---,0.00,VWS V14.01,2013-04-16 18:47:00,
2013-04-16 13:48:00,77.5,44.5,27.91,South,173,2.7,3.6,31,0.00,,---,0.00,VWS V14.01,2013-04-16 18:48:00,
2013-04-16 13:49:00,77.5,44.5,27.91,SSE,164,6.3,6.3,31,0.00,,---,0.00,VWS V14.01,2013-04-16 18:49:00,
2013-04-16 13:52:00,77.7,44.7,27.91,SSW,196,5.4,5.4,31,0.00,,---,0.00,VWS V14.01,2013-04-16 18:52:00,
2013-04-16 13:53:00,77.7,44.7,27.91,SSW,196,5.4,5.4,31,0.00,,---,0.00,VWS V14.01,2013-04-16 18:53:00,
2013-04-16 13:54:00,77.7,44.7,27.91,South,186,3.1,5.4,31,0.00,,---,0.00,VWS V14.01,2013-04-16 18:54:00,
2013-04-16 13:57:00,77.7,44.7,27.91,South,185,4.0,4.0,31,0.00,,---,0.00,VWS V14.01,2013-04-16 18:57:00,
2013-04-16 13:58:00,77.7,44.7,27.91,South,185,4.0,4.0,31,0.00,,---,0.00,VWS V14.01,2013-04-16 18:58:00,
2013-04-16 13:59:00,77.9,44.9,27.91,South,185,4.0,4.0,31,0.00,,---,0.00,VWS V14.01,2013-04-16 18:59:00,
2013-04-16 14:02:00,78.3,45.2,27.91,SSE,149,3.1,3.1,31,0.00,,---,0.00,VWS V14.01,2013-04-16 19:02:00,
2013-04-16 14:03:00,78.3,45.2,27.91,SSE,149,3.1,3.1,31,0.00,,---,0.00,VWS V14.01,2013-04-16 19:03:00,
2013-04-16 14:04:00,78.3,45.2,27.91,South,180,5.4,5.4,31,0.00,,---,0.00,VWS V14.01,2013-04-16 19:04:00,
2013-04-16 14:08:00,78.8,45.6,27.91,SE,134,5.8,5.8,31,0.00,,---,0.00,VWS V14.01,2013-04-16 19:08:00,
2013-04-16 14:09:00,78.8,45.6,27.91,SSW,203,8.1,8.1,31,0.00,,---,0.00,VWS V14.01,2013-04-16 19:09:00,
2013-04-16 14:13:00,79.0,44.9,27.88,SSW,203,8.1,8.1,30,0.00,,---,0.00,VWS V14.01,2013-04-16 19:13:00,
2013-04-16 14:14:00,79.3,45.2,27.88,South,175,4.9,4.9,30,0.00,,---,0.00,VWS V14.01,2013-04-16 19:14:00,
2013-04-16 14:18:00,79.5,45.4,27.88,SSW,202,5.8,5.8,30,0.00,,---,0.00,VWS V14.01,2013-04-16 19:18:00,
2013-04-16 14:19:00,79.5,45.4,27.88,SSW,202,5.8,5.8,30,0.00,,---,0.00,VWS V14.01,2013-04-16 19:19:00,
2013-04-16 14:23:00,79.5,45.4,27.88,SSE,167,5.8,5.8,30,0.00,,---,0.00,VWS V14.01,2013-04-16 19:23:00,
2013-04-16 14:24:00,79.5,45.4,27.88,SSE,167,5.8,5.8,30,0.00,,---,0.00,VWS V14.01,2013-04-16 19:24:00,
2013-04-16 14:28:00,79.2,45.1,27.85,South,174,3.6,4.0,30,0.00,,---,0.00,VWS V14.01,2013-04-16 19:28:00,
2013-04-16 14:29:00,79.2,45.1,27.85,South,174,3.6,4.0,30,0.00,,---,0.00,VWS V14.01,2013-04-16 19:29:00,
2013-04-16 14:33:00,79.2,45.1,27.85,SSE,158,2.7,2.7,30,0.00,,---,0.00,VWS V14.01,2013-04-16 19:33:00,
2013-04-16 14:34:00,79.2,45.1,27.85,SSE,158,2.7,2.7,30,0.00,,---,0.00,VWS V14.01,2013-04-16 19:34:00,
2013-04-16 14:35:00,79.2,45.1,27.85,SW,224,8.3,8.3,30,0.00,,---,0.00,VWS V14.01,2013-04-16 19:35:00,
2013-04-16 14:38:00,78.6,42.8,27.88,SSE,160,8.7,8.7,28,0.00,,---,0.00,VWS V14.01,2013-04-16 19:38:00,
2013-04-16 14:39:00,78.6,42.8,27.88,SSE,160,8.7,8.7,28,0.00,,---,0.00,VWS V14.01,2013-04-16 19:39:00,
2013-04-16 14:43:00,78.1,44.2,27.88,SSE,159,6.3,8.3,30,0.00,,---,0.00,VWS V14.01,2013-04-16 19:43:00,
2013-04-16 14:44:00,78.1,44.2,27.88,SSE,159,6.3,8.3,30,0.00,,---,0.00,VWS V14.01,2013-04-16 19:44:00,
2013-04-16 14:45:00,78.1,44.2,27.88,SSE,159,6.3,6.3,30,0.00,,---,0.00,VWS V14.01,2013-04-16 19:45:00,
2013-04-16 14:49:00,77.9,44.9,27.88,WNW,284,3.6,3.6,31,0.00,,---,0.00,VWS V14.01,2013-04-16 19:49:00,
2013-04-16 14:50:00,77.9,44.9,27.88,SSE,150,5.8,5.8,31,0.00,,---,0.00,VWS V14.01,2013-04-16 19:50:00,
2013-04-16 14:54:00,77.7,43.8,27.88,SSE,166,2.7,3.1,30,0.00,,---,0.00,VWS V14.01,2013-04-16 19:54:00,
2013-04-16 14:55:00,77.5,44.5,27.88,SSE,149,3.6,3.6,31,0.00,,---,0.00,VWS V14.01,2013-04-16 19:55:00,
2013-04-16 14:56:00,77.5,44.5,27.88,SSE,149,3.6,3.6,31,0.00,,---,0.00,VWS V14.01,2013-04-16 19:56:00,
2013-04-16 14:59:00,77.4,44.4,27.88,ESE,121,3.1,3.1,31,0.00,,---,0.00,VWS V14.01,2013-04-16 19:59:00,
2013-04-16 15:00:00,77.4,43.5,27.88,ESE,121,3.1,3.1,30,0.00,,---,0.00,VWS V14.01,2013-04-16 20:00:00,
2013-04-16 15:01:00,77.4,43.5,27.88,SSW,192,5.4,5.4,30,0.00,,---,0.00,VWS V14.01,2013-04-16 20:01:00,
2013-04-16 15:04:00,77.2,44.2,27.88,SSE,150,4.0,4.0,31,0.00,,---,0.00,VWS V14.01,2013-04-16 20:04:00,
2013-04-16 15:05:00,77.2,44.2,27.88,SSE,162,8.1,8.1,31,0.00,,---,0.00,VWS V14.01,2013-04-16 20:05:00,
2013-04-16 15:06:00,77.2,44.2,27.88,SSE,155,4.0,4.0,31,0.00,,---,0.00,VWS V14.01,2013-04-16 20:06:00,
2013-04-16 15:09:00,77.2,44.2,27.88,SSE,150,3.6,3.6,31,0.00,,---,0.00,VWS V14.01,2013-04-16 20:09:00,
2013-04-16 15:10:00,77.2,44.2,27.88,SSE,167,7.6,7.6,31,0.00,,---,0.00,VWS V14.01,2013-04-16 20:10:00,
2013-04-16 15:12:00,77.2,44.2,27.88,SSE,167,7.6,7.6,31,0.00,,---,0.00,VWS V14.01,2013-04-16 20:12:00,
2013-04-16 15:14:00,77.2,44.2,27.88,SSE,161,4.9,8.7,31,0.00,,---,0.00,VWS V14.01,2013-04-16 20:14:00,
2013-04-16 15:15:00,77.2,44.2,27.88,SE,145,7.6,8.7,31,0.00,,---,0.00,VWS V14.01,2013-04-16 20:15:00,
2013-04-16 15:17:00,77.7,44.7,27.88,SE,145,7.6,7.6,31,0.00,,---,0.00,VWS V14.01,2013-04-16 20:17:00,
2013-04-16 15:20:00,77.9,44.9,27.88,South,185,5.4,5.4,31,0.00,,---,0.00,VWS V14.01,2013-04-16 20:20:00,
2013-04-16 15:21:00,77.9,44.9,27.88,South,169,5.8,5.8,31,0.00,,---,0.00,VWS V14.01,2013-04-16 20:21:00,
2013-04-16 15:22:00,77.9,44.9,27.88,SSE,152,5.4,5.4,31,0.00,,---,0.00,VWS V14.01,2013-04-16 20:22:00,
2013-04-16 15:25:00,78.3,45.2,27.85,SE,127,5.4,8.3,31,0.00,,---,0.00,VWS V14.01,2013-04-16 20:25:00,
2013-04-16 15:26:00,78.3,45.2,27.85,South,175,5.8,5.8,31,0.00,,---,0.00,VWS V14.01,2013-04-16 20:26:00,
2013-04-16 15:27:00,78.3,45.2,27.85,SE,143,8.1,8.1,31,0.00,,---,0.00,VWS V14.01,2013-04-16 20:27:00,
2013-04-16 15:30:00,78.3,45.2,27.85,SSE,163,5.8,5.8,31,0.00,,---,0.00,VWS V14.01,2013-04-16 20:30:00,
2013-04-16 15:31:00,78.3,45.2,27.85,SSE,163,5.8,5.8,31,0.00,,---,0.00,VWS V14.01,2013-04-16 20:31:00,
2013-04-16 15:32:00,79.2,45.1,27.85,South,172,5.4,5.4,30,0.00,,---,0.00,VWS V14.01,2013-04-16 20:32:00,
2013-04-16 15:35:00,79.5,45.4,27.85,South,185,4.9,4.9,30,0.00,,---,0.00,VWS V14.01,2013-04-16 20:35:00,
2013-04-16 15:36:00,79.5,45.4,27.85,South,177,4.9,4.9,30,0.00,,---,0.00,VWS V14.01,2013-04-16 20:36:00,
2013-04-16 15:37:00,79.5,45.4,27.85,South,177,4.9,4.9,30,0.00,,---,0.00,VWS V14.01,2013-04-16 20:37:00,
2013-04-16 15:40:00,79.9,45.7,27.82,SSE,167,8.3,8.3,30,0.00,,---,0.00,VWS V14.01,2013-04-16 20:40:00,
2013-04-16 15:41:00,79.9,45.7,27.82,SSE,164,3.6,3.6,30,0.00,,---,0.00,VWS V14.01,2013-04-16 20:41:00,
2013-04-16 15:42:00,80.1,44.0,27.82,SSE,164,3.6,3.6,28,0.00,,---,0.00,VWS V14.01,2013-04-16 20:42:00,
2013-04-16 15:43:00,80.1,44.0,27.82,SSE,164,3.6,3.6,28,0.00,,---,0.00,VWS V14.01,2013-04-16 20:43:00,
2013-04-16 15:45:00,80.2,46.0,27.82,SE,143,8.1,8.1,30,0.00,,---,0.00,VWS V14.01,2013-04-16 20:45:00,
2013-04-16 15:46:00,80.2,46.0,27.82,SE,143,8.1,8.1,30,0.00,,---,0.00,VWS V14.01,2013-04-16 20:46:00,
2013-04-16 15:47:00,80.2,44.2,27.82,South,177,7.6,8.1,28,0.00,,---,0.00,VWS V14.01,2013-04-16 20:47:00,
2013-04-16 15:48:00,80.2,44.2,27.82,South,174,5.4,8.1,28,0.00,,---,0.00,VWS V14.01,2013-04-16 20:48:00,
2013-04-16 15:50:00,79.9,43.0,27.82,SSW,195,3.6,3.6,27,0.00,,---,0.00,VWS V14.01,2013-04-16 20:50:00,
2013-04-16 15:51:00,79.9,43.0,27.82,SSW,195,3.6,3.6,27,0.00,,---,0.00,VWS V14.01,2013-04-16 20:51:00,
2013-04-16 15:52:00,79.9,43.0,27.82,SSW,195,3.6,3.6,27,0.00,,---,0.00,VWS V14.01,2013-04-16 20:52:00,
2013-04-16 15:53:00,79.9,43.0,27.82,SSE,160,7.2,7.2,27,0.00,,---,0.00,VWS V14.01,2013-04-16 20:53:00,
2013-04-16 15:56:00,79.5,42.6,27.82,SSE,162,8.3,8.3,27,0.00,,---,0.00,VWS V14.01,2013-04-16 20:56:00,
2013-04-16 15:57:00,79.5,42.6,27.82,SSE,162,8.3,8.3,27,0.00,,---,0.00,VWS V14.01,2013-04-16 20:57:00,
2013-04-16 15:58:00,79.5,42.6,27.82,South,189,6.3,6.3,27,0.00,,---,0.00,VWS V14.01,2013-04-16 20:58:00,
2013-04-16 16:01:00,79.0,44.0,27.82,SSE,168,3.1,3.6,29,0.00,,---,0.00,VWS V14.01,2013-04-16 21:01:00,
2013-04-16 16:02:00,79.0,44.0,27.88,SSE,168,3.1,3.1,29,0.00,,---,0.00,VWS V14.01,2013-04-16 21:02:00,
2013-04-16 16:03:00,79.0,44.0,27.88,SSE,151,4.9,4.9,29,0.00,,---,0.00,VWS V14.01,2013-04-16 21:03:00,
2013-04-16 16:06:00,79.0,44.0,27.88,SSE,152,4.9,6.3,29,0.00,,---,0.00,VWS V14.01,2013-04-16 21:06:00,
2013-04-16 16:07:00,79.0,44.0,27.88,SE,146,5.8,5.8,29,0.00,,---,0.00,VWS V14.01,2013-04-16 21:07:00,
2013-04-16 16:08:00,78.4,44.5,27.88,SE,146,5.8,5.8,30,0.00,,---,0.00,VWS V14.01,2013-04-16 21:08:00,
2013-04-16 16:11:00,78.4,45.3,27.85,SE,146,5.8,5.8,31,0.00,,---,0.00,VWS V14.01,2013-04-16 21:11:00,
2013-04-16 16:12:00,78.3,44.3,27.85,SSE,153,6.3,6.3,30,0.00,,---,0.00,VWS V14.01,2013-04-16 21:12:00,
2013-04-16 16:13:00,78.3,44.3,27.85,South,182,3.6,3.6,30,0.00,,---,0.00,VWS V14.01,2013-04-16 21:13:00,
2013-04-16 16:17:00,78.4,45.3,27.85,South,175,2.2,3.1,31,0.00,,---,0.00,VWS V14.01,2013-04-16 21:17:00,
2013-04-16 16:18:00,78.4,45.3,27.85,South,175,2.7,2.7,31,0.00,,---,0.00,VWS V14.01,2013-04-16 21:18:00,
2013-04-16 16:22:00,78.4,45.3,27.85,SE,135,3.1,3.1,31,0.00,,---,0.00,VWS V14.01,2013-04-16 21:22:00,
2013-04-16 16:23:00,78.6,45.5,27.85,SSE,162,4.9,4.9,31,0.00,,---,0.00,VWS V14.01,2013-04-16 21:23:00,
2013-04-16 16:27:00,78.6,44.6,27.85,South,180,4.0,4.0,30,0.00,,---,0.00,VWS V14.01,2013-04-16 21:27:00,
2013-04-16 16:28:00,78.6,44.6,27.85,South,184,3.6,4.0,30,0.00,,---,0.00,VWS V14.01,2013-04-16 21:28:00,
2013-04-16 16:29:00,78.6,44.6,27.85,South,186,3.6,3.6,30,0.00,,---,0.00,VWS V14.01,2013-04-16 21:29:00,
2013-04-16 16:32:00,78.6,44.6,27.85,SSE,159,2.7,2.7,30,0.00,,---,0.00,VWS V14.01,2013-04-16 21:32:00,
2013-04-16 16:33:00,78.6,44.6,27.85,SSE,159,2.7,2.7,30,0.00,,---,0.00,VWS V14.01,2013-04-16 21:33:00,
2013-04-16 16:34:00,78.8,44.8,27.85,South,181,5.8,5.8,30,0.00,,---,0.00,VWS V14.01,2013-04-16 21:34:00,
2013-04-16 16:37:00,78.8,44.8,27.85,South,182,7.6,7.6,30,0.00,,---,0.00,VWS V14.01,2013-04-16 21:37:00,
2013-04-16 16:38:00,78.8,44.8,27.85,South,182,7.6,7.6,30,0.00,,---,0.00,VWS V14.01,2013-04-16 21:38:00,
2013-04-16 16:39:00,78.8,44.8,27.85,South,187,4.0,4.0,30,0.00,,---,0.00,VWS V14.01,2013-04-16 21:39:00,
2013-04-16 16:42:00,78.8,44.8,27.85,SSW,206,2.7,2.7,30,0.00,,---,0.00,VWS V14.01,2013-04-16 21:42:00,
2013-04-16 16:43:00,78.8,44.8,27.85,SSW,196,3.6,3.6,30,0.00,,---,0.00,VWS V14.01,2013-04-16 21:43:00,
2013-04-16 16:44:00,78.8,44.8,27.85,SSW,196,3.6,3.6,30,0.00,,---,0.00,VWS V14.01,2013-04-16 21:44:00,
2013-04-16 16:47:00,78.3,44.3,27.85,South,187,3.6,3.6,30,0.00,,---,0.00,VWS V14.01,2013-04-16 21:47:00,
2013-04-16 16:48:00,78.3,44.3,27.85,South,187,3.6,3.6,30,0.00,,---,0.00,VWS V14.01,2013-04-16 21:48:00,
2013-04-16 16:49:00,78.3,44.3,27.85,South,177,3.6,3.6,30,0.00,,---,0.00,VWS V14.01,2013-04-16 21:49:00,
2013-04-16 16:52:00,78.1,45.0,27.85,ESE,117,3.6,3.6,31,0.00,,---,0.00,VWS V14.01,2013-04-16 21:52:00,
2013-04-16 16:53:00,78.1,45.0,27.85,ESE,117,3.6,3.6,31,0.00,,---,0.00,VWS V14.01,2013-04-16 21:53:00,
2013-04-16 16:54:00,77.9,44.9,27.85,South,171,2.7,3.6,31,0.00,,---,0.00,VWS V14.01,2013-04-16 21:54:00,
2013-04-16 16:57:00,77.7,43.8,27.85,South,178,7.6,7.6,30,0.00,,---,0.00,VWS V14.01,2013-04-16 21:57:00,
2013-04-16 16:58:00,77.7,43.8,27.85,SSE,149,2.7,7.6,30,0.00,,---,0.00,VWS V14.01,2013-04-16 21:58:00,
2013-04-16 16:59:00,77.7,43.8,27.85,SSE,149,0.0,2.7,30,0.00,,---,0.00,VWS V14.01,2013-04-16 21:59:00,
2013-04-16 17:02:00,77.7,43.8,27.85,South,182,4.0,6.7,30,0.00,,---,0.00,VWS V14.01,2013-04-16 22:02:00,
2013-04-16 17:03:00,77.7,43.8,27.85,South,182,4.0,6.7,30,0.00,,---,0.00,VWS V14.01,2013-04-16 22:03:00,
2013-04-16 17:04:00,77.7,43.8,27.85,South,182,4.0,4.0,30,0.00,,---,0.00,VWS V14.01,2013-04-16 22:04:00,
2013-04-16 17:07:00,77.7,43.8,27.85,SSE,147,4.0,4.0,30,0.00,,---,0.00,VWS V14.01,2013-04-16 22:07:00,
2013-04-16 17:08:00,77.7,43.8,27.85,SSE,147,4.0,4.0,30,0.00,,---,0.00,VWS V14.01,2013-04-16 22:08:00,
2013-04-16 17:09:00,77.7,43.8,27.85,SSE,147,4.0,4.0,30,0.00,,---,0.00,VWS V14.01,2013-04-16 22:09:00,
2013-04-16 17:10:00,77.7,43.8,27.85,SSE,149,5.4,5.4,30,0.00,,---,0.00,VWS V14.01,2013-04-16 22:10:00,
2013-04-16 17:13:00,77.5,44.5,27.85,SSE,161,3.1,5.4,31,0.00,,---,0.00,VWS V14.01,2013-04-16 22:13:00,
2013-04-16 17:14:00,77.5,44.5,27.85,SW,214,2.2,2.2,31,0.00,,---,0.00,VWS V14.01,2013-04-16 22:14:00,
2013-04-16 17:16:00,77.5,44.5,27.85,South,174,2.2,3.1,31,0.00,,---,0.00,VWS V14.01,2013-04-16 22:16:00,
2013-04-16 17:18:00,77.5,44.5,27.85,South,174,2.2,2.2,31,0.00,,---,0.00,VWS V14.01,2013-04-16 22:18:00,
2013-04-16 17:19:00,77.7,44.7,27.85,South,173,3.6,3.6,31,0.00,,---,0.00,VWS V14.01,2013-04-16 22:19:00,
2013-04-16 17:22:00,77.7,44.7,27.85,SSW,194,4.9,4.9,31,0.00,,---,0.00,VWS V14.01,2013-04-16 22:22:00,
2013-04-16 17:23:00,77.7,44.7,27.85,South,169,4.9,4.9,31,0.00,,---,0.00,VWS V14.01,2013-04-16 22:23:00,
2013-04-16 17:24:00,77.7,44.7,27.85,SSE,154,6.3,6.3,31,0.00,,---,0.00,VWS V14.01,2013-04-16 22:24:00,
2013-04-16 17:27:00,77.7,44.7,27.82,South,186,5.4,5.4,31,0.00,,---,0.00,VWS V14.01,2013-04-16 22:27:00,
2013-04-16 17:28:00,77.7,44.7,27.82,South,186,5.4,5.4,31,0.00,,---,0.00,VWS V14.01,2013-04-16 22:28:00,
2013-04-16 17:29:00,77.7,44.7,27.82,South,186,5.4,5.4,31,0.00,,---,0.00,VWS V14.01,2013-04-16 22:29:00,
2013-04-16 17:30:00,77.7,44.7,27.82,South,186,5.4,5.4,31,0.00,,---,0.00,VWS V14.01,2013-04-16 22:30:00,
2013-04-16 17:32:00,77.9,44.9,27.82,South,181,3.6,5.8,31,0.00,,---,0.00,VWS V14.01,2013-04-16 22:32:00,
2013-04-16 17:33:00,77.9,44.9,27.82,South,181,3.6,3.6,31,0.00,,---,0.00,VWS V14.01,2013-04-16 22:33:00,
2013-04-16 17:34:00,77.9,44.9,27.82,NW,317,3.6,4.0,31,0.00,,---,0.00,VWS V14.01,2013-04-16 22:34:00,
2013-04-16 17:35:00,77.9,44.9,27.82,NW,317,3.6,3.6,31,0.00,,---,0.00,VWS V14.01,2013-04-16 22:35:00,
2013-04-16 17:38:00,77.9,44.9,27.82,South,170,5.4,5.4,31,0.00,,---,0.00,VWS V14.01,2013-04-16 22:38:00,
2013-04-16 17:39:00,77.9,44.9,27.79,South,170,5.4,5.4,31,0.00,,---,0.00,VWS V14.01,2013-04-16 22:39:00,
2013-04-16 17:40:00,77.9,44.9,27.79,SE,138,5.4,5.4,31,0.00,,---,0.00,VWS V14.01,2013-04-16 22:40:00,
2013-04-16 17:43:00,77.9,44.9,27.79,South,169,5.4,5.4,31,0.00,,---,0.00,VWS V14.01,2013-04-16 22:43:00,
2013-04-16 17:44:00,77.9,44.9,27.79,South,169,5.4,5.4,31,0.00,,---,0.00,VWS V14.01,2013-04-16 22:44:00,
2013-04-16 17:45:00,77.5,44.5,27.79,SE,145,2.7,2.7,31,0.00,,---,0.00,VWS V14.01,2013-04-16 22:45:00,
2013-04-16 17:48:00,77.5,44.5,27.79,SSE,168,4.9,4.9,31,0.00,,---,0.00,VWS V14.01,2013-04-16 22:48:00,
2013-04-16 17:49:00,77.5,44.5,27.79,SSE,163,4.5,4.9,31,0.00,,---,0.00,VWS V14.01,2013-04-16 22:49:00,
2013-04-16 17:51:00,77.5,44.5,27.79,SSE,154,4.9,4.9,31,0.00,,---,0.00,VWS V14.01,2013-04-16 22:51:00,
2013-04-16 17:53:00,77.5,44.5,27.79,SSE,154,4.9,4.9,31,0.00,,---,0.00,VWS V14.01,2013-04-16 22:53:00,
2013-04-16 17:54:00,77.5,44.5,27.79,SSE,167,3.6,3.6,31,0.00,,---,0.00,VWS V14.01,2013-04-16 22:54:00,
2013-04-16 17:56:00,77.5,44.5,27.82,South,191,3.6,3.6,31,0.00,,---,0.00,VWS V14.01,2013-04-16 22:56:00,
2013-04-16 17:58:00,77.5,44.5,27.82,South,188,4.0,6.3,31,0.00,,---,0.00,VWS V14.01,2013-04-16 22:58:00,
2013-04-16 17:59:00,77.0,44.1,27.82,South,171,4.0,4.0,31,0.00,,---,0.00,VWS V14.01,2013-04-16 22:59:00,
2013-04-16 18:01:00,77.0,44.1,27.82,SSE,168,4.0,4.0,31,0.00,,---,0.00,VWS V14.01,2013-04-16 23:01:00,
2013-04-16 18:03:00,77.0,44.1,27.82,SSE,156,4.9,4.9,31,0.00,,---,0.00,VWS V14.01,2013-04-16 23:03:00,
2013-04-16 18:04:00,77.0,44.1,27.82,SSE,156,4.9,4.9,31,0.00,,---,0.00,VWS V14.01,2013-04-16 23:04:00,
2013-04-16 18:05:00,77.0,44.1,27.82,SSE,156,4.9,4.9,31,0.00,,---,0.00,VWS V14.01,2013-04-16 23:05:00,
2013-04-16 18:07:00,77.0,44.1,27.82,SSE,165,0.0,0.0,31,0.00,,---,0.00,VWS V14.01,2013-04-16 23:07:00,
2013-04-16 18:09:00,76.6,44.6,27.82,South,171,4.9,4.9,32,0.00,,---,0.00,VWS V14.01,2013-04-16 23:09:00,
2013-04-16 18:10:00,76.6,44.6,27.82,South,171,4.9,4.9,32,0.00,,---,0.00,VWS V14.01,2013-04-16 23:10:00,
2013-04-16 18:12:00,76.6,44.6,27.82,SSE,167,4.5,4.5,32,0.00,,---,0.00,VWS V14.01,2013-04-16 23:12:00,
2013-04-16 18:14:00,76.6,44.6,27.82,South,175,2.7,4.5,32,0.00,,---,0.00,VWS V14.01,2013-04-16 23:14:00,
2013-04-16 18:15:00,76.6,44.6,27.85,South,175,2.7,2.7,32,0.00,,---,0.00,VWS V14.01,2013-04-16 23:15:00,
2013-04-16 18:17:00,76.6,44.6,27.85,South,181,0.0,0.0,32,0.00,,---,0.00,VWS V14.01,2013-04-16 23:17:00,
2013-04-16 18:19:00,76.5,44.4,27.85,South,183,3.1,3.1,32,0.00,,---,0.00,VWS V14.01,2013-04-16 23:19:00,
2013-04-16 18:20:00,76.5,44.4,27.85,South,183,0.0,3.1,32,0.00,,---,0.00,VWS V14.01,2013-04-16 23:20:00,
2013-04-16 18:22:00,76.5,44.4,27.85,SSE,164,3.6,4.0,32,0.00,,---,0.00,VWS V14.01,2013-04-16 23:22:00,
2013-04-16 18:24:00,76.5,44.4,27.85,SSE,164,3.6,3.6,32,0.00,,---,0.00,VWS V14.01,2013-04-16 23:24:00,
2013-04-16 18:25:00,76.5,44.4,27.85,SSE,164,2.7,3.6,32,0.00,,---,0.00,VWS V14.01,2013-04-16 23:25:00,
2013-04-16 18:27:00,76.5,44.4,27.82,SSE,164,0.0,0.0,32,0.00,,---,0.00,VWS V14.01,2013-04-16 23:27:00,
2013-04-16 18:29:00,76.1,44.1,27.82,SSE,164,0.0,0.0,32,0.00,,---,0.00,VWS V14.01,2013-04-16 23:29:00,
2013-04-16 18:30:00,76.1,44.1,27.82,SSE,164,0.0,0.0,32,0.00,,---,0.00,VWS V14.01,2013-04-16 23:30:00,
2013-04-16 18:31:00,76.1,44.1,27.82,SSE,164,0.0,0.0,32,0.00,,---,0.00,VWS V14.01,2013-04-16 23:31:00,
2013-04-16 18:32:00,76.1,44.1,27.82,SSE,164,0.0,0.0,32,0.00,,---,0.00,VWS V14.01,2013-04-16 23:32:00,
2013-04-16 18:34:00,76.1,44.1,27.82,SSE,164,0.0,0.0,32,0.00,,---,0.00,VWS V14.01,2013-04-16 23:34:00,
2013-04-16 18:35:00,76.1,44.1,27.82,SSE,164,0.0,0.0,32,0.00,,---,0.00,VWS V14.01,2013-04-16 23:35:00,
2013-04-16 18:36:00,76.1,44.1,27.82,SSE,164,0.0,0.0,32,0.00,,---,0.00,VWS V14.01,2013-04-16 23:36:00,
2013-04-16 18:37:00,75.7,44.6,27.82,South,180,0.0,0.0,33,0.00,,---,0.00,VWS V14.01,2013-04-16 23:37:00,
2013-04-16 18:39:00,75.6,44.5,27.82,South,180,0.0,0.0,33,0.00,,---,0.00,VWS V14.01,2013-04-16 23:39:00,
2013-04-16 18:40:00,75.6,44.5,27.82,South,180,0.0,0.0,33,0.00,,---,0.00,VWS V14.01,2013-04-16 23:40:00,
2013-04-16 18:41:00,75.6,44.5,27.85,South,180,0.0,0.0,33,0.00,,---,0.00,VWS V14.01,2013-04-16 23:41:00,
2013-04-16 18:43:00,75.6,44.5,27.85,South,180,0.0,0.0,33,0.00,,---,0.00,VWS V14.01,2013-04-16 23:43:00,
2013-04-16 18:44:00,75.6,44.5,27.85,South,180,0.0,0.0,33,0.00,,---,0.00,VWS V14.01,2013-04-16 23:44:00,
2013-04-16 18:45:00,75.2,44.9,27.85,South,180,0.0,0.0,34,0.00,,---,0.00,VWS V14.01,2013-04-16 23:45:00,
2013-04-16 18:46:00,75.2,44.9,27.85,South,180,0.0,0.0,34,0.00,,---,0.00,VWS V14.01,2013-04-16 23:46:00,
2013-04-16 18:48:00,75.2,44.9,27.85,South,180,0.0,0.0,34,0.00,,---,0.00,VWS V14.01,2013-04-16 23:48:00,
2013-04-16 18:49:00,75.2,44.9,27.85,South,180,0.0,0.0,34,0.00,,---,0.00,VWS V14.01,2013-04-16 23:49:00,
2013-04-16 18:50:00,75.2,44.9,27.85,South,180,0.0,0.0,34,0.00,,---,0.00,VWS V14.01,2013-04-16 23:50:00,
2013-04-16 18:51:00,75.2,44.9,27.85,South,180,0.0,0.0,34,0.00,,---,0.00,VWS V14.01,2013-04-16 23:51:00,
2013-04-16 18:53:00,75.2,44.9,27.85,South,180,0.0,0.0,34,0.00,,---,0.00,VWS V14.01,2013-04-16 23:53:00,
2013-04-16 18:54:00,74.7,44.5,27.85,South,180,0.0,0.0,34,0.00,,---,0.00,VWS V14.01,2013-04-16 23:54:00,
2013-04-16 18:55:00,74.7,45.2,27.85,South,180,0.0,0.0,35,0.00,,---,0.00,VWS V14.01,2013-04-16 23:55:00,
2013-04-16 18:57:00,74.7,45.2,27.85,South,180,0.0,0.0,35,0.00,,---,0.00,VWS V14.01,2013-04-16 23:57:00,
2013-04-16 18:58:00,74.7,45.2,27.85,South,180,0.0,0.0,35,0.00,,---,0.00,VWS V14.01,2013-04-16 23:58:00,
2013-04-16 18:59:00,74.7,45.2,27.85,South,180,0.0,0.0,35,0.00,,---,0.00,VWS V14.01,2013-04-16 23:59:00,
2013-04-16 19:00:00,74.7,45.2,27.85,South,180,0.0,0.0,35,0.00,,---,0.00,VWS V14.01,2013-04-17 00:00:00,
2013-04-16 19:02:00,74.7,45.2,27.85,South,180,0.0,0.0,35,0.00,,---,0.00,VWS V14.01,2013-04-17 00:02:00,
2013-04-16 19:03:00,74.3,44.9,27.85,South,180,2.2,2.2,35,0.00,,---,0.00,VWS V14.01,2013-04-17 00:03:00,
2013-04-16 19:04:00,74.1,44.8,27.85,South,180,0.0,2.2,35,0.00,,---,0.00,VWS V14.01,2013-04-17 00:04:00,
2013-04-16 19:05:00,74.1,44.8,27.85,South,180,0.0,0.0,35,0.00,,---,0.00,VWS V14.01,2013-04-17 00:05:00,
2013-04-16 19:06:00,74.1,44.8,27.85,South,180,0.0,0.0,35,0.00,,---,0.00,VWS V14.01,2013-04-17 00:06:00,
2013-04-16 19:07:00,74.1,44.8,27.85,South,180,0.0,0.0,35,0.00,,---,0.00,VWS V14.01,2013-04-17 00:07:00,
2013-04-16 19:09:00,74.1,44.8,27.85,South,180,0.0,0.0,35,0.00,,---,0.00,VWS V14.01,2013-04-17 00:09:00,
2013-04-16 19:11:00,74.1,44.8,27.85,South,180,0.0,0.0,35,0.00,,---,0.00,VWS V14.01,2013-04-17 00:11:00,
2013-04-16 19:12:00,74.1,44.8,27.85,South,180,0.0,0.0,35,0.00,,---,0.00,VWS V14.01,2013-04-17 00:12:00,
2013-04-16 19:14:00,73.8,44.4,27.85,South,180,0.0,0.0,35,0.00,,---,0.00,VWS V14.01,2013-04-17 00:14:00,
2013-04-16 19:15:00,73.8,44.4,27.85,South,180,0.0,0.0,35,0.00,,---,0.00,VWS V14.01,2013-04-17 00:15:00,
2013-04-16 19:17:00,73.6,45.0,27.85,South,180,0.0,0.0,36,0.00,,---,0.00,VWS V14.01,2013-04-17 00:17:00,
2013-04-16 19:19:00,73.4,44.8,27.85,South,180,0.0,0.0,36,0.00,,---,0.00,VWS V14.01,2013-04-17 00:19:00,
2013-04-16 19:20:00,73.4,44.8,27.85,South,180,0.0,0.0,36,0.00,,---,0.00,VWS V14.01,2013-04-17 00:20:00,
2013-04-16 19:22:00,73.2,45.4,27.85,South,180,0.0,0.0,37,0.00,,---,0.00,VWS V14.01,2013-04-17 00:22:00,
2013-04-16 19:24:00,73.2,45.4,27.85,South,180,0.0,0.0,37,0.00,,---,0.00,VWS V14.01,2013-04-17 00:24:00,
2013-04-16 19:26:00,73.2,45.4,27.82,South,180,0.0,0.0,37,0.00,,---,0.00,VWS V14.01,2013-04-17 00:26:00,
2013-04-16 19:27:00,73.2,45.4,27.82,South,180,0.0,0.0,37,0.00,,---,0.00,VWS V14.01,2013-04-17 00:27:00,
2013-04-16 19:29:00,72.7,45.6,27.82,South,180,0.0,0.0,38,0.00,,---,0.00,VWS V14.01,2013-04-17 00:29:00,
2013-04-16 19:31:00,72.7,45.6,27.82,South,180,0.0,0.0,38,0.00,,---,0.00,VWS V14.01,2013-04-17 00:31:00,
2013-04-16 19:32:00,72.7,45.6,27.82,South,180,0.0,0.0,38,0.00,,---,0.00,VWS V14.01,2013-04-17 00:32:00,
2013-04-16 19:35:00,72.7,45.6,27.82,South,180,2.2,2.2,38,0.00,,---,0.00,VWS V14.01,2013-04-17 00:35:00,
2013-04-16 19:36:00,72.7,45.6,27.82,South,180,0.0,0.0,38,0.00,,---,0.00,VWS V14.01,2013-04-17 00:36:00,
2013-04-16 19:37:00,72.7,45.6,27.82,South,180,0.0,0.0,38,0.00,,---,0.00,VWS V14.01,2013-04-17 00:37:00,
2013-04-16 19:40:00,72.7,45.6,27.85,South,180,0.0,0.0,38,0.00,,---,0.00,VWS V14.01,2013-04-17 00:40:00,
2013-04-16 19:41:00,72.3,46.7,27.85,South,180,0.0,0.0,40,0.00,,---,0.00,VWS V14.01,2013-04-17 00:41:00,
2013-04-16 19:42:00,72.3,46.7,27.85,South,180,0.0,0.0,40,0.00,,---,0.00,VWS V14.01,2013-04-17 00:42:00,
2013-04-16 19:43:00,72.3,46.7,27.85,South,180,0.0,0.0,40,0.00,,---,0.00,VWS V14.01,2013-04-17 00:43:00,
2013-04-16 19:45:00,72.3,46.7,27.85,South,180,0.0,0.0,40,0.00,,---,0.00,VWS V14.01,2013-04-17 00:45:00,
2013-04-16 19:46:00,72.3,46.7,27.85,South,180,0.0,0.0,40,0.00,,---,0.00,VWS V14.01,2013-04-17 00:46:00,
2013-04-16 19:47:00,72.3,46.7,27.85,South,180,0.0,0.0,40,0.00,,---,0.00,VWS V14.01,2013-04-17 00:47:00,
2013-04-16 19:48:00,72.3,46.7,27.85,South,180,0.0,0.0,40,0.00,,---,0.00,VWS V14.01,2013-04-17 00:48:00,
2013-04-16 19:50:00,72.3,46.7,27.85,South,180,0.0,0.0,40,0.00,,---,0.00,VWS V14.01,2013-04-17 00:50:00,
2013-04-16 19:52:00,72.1,47.2,27.85,South,180,0.0,0.0,41,0.00,,---,0.00,VWS V14.01,2013-04-17 00:52:00,
2013-04-16 19:53:00,72.1,47.2,27.85,South,180,0.0,0.0,41,0.00,,---,0.00,VWS V14.01,2013-04-17 00:53:00,
2013-04-16 19:55:00,72.1,47.8,27.85,South,180,0.0,0.0,42,0.00,,---,0.00,VWS V14.01,2013-04-17 00:55:00,
2013-04-16 19:57:00,72.0,47.6,27.85,South,180,0.0,0.0,42,0.00,,---,0.00,VWS V14.01,2013-04-17 00:57:00,
2013-04-16 19:58:00,72.0,47.6,27.85,South,180,0.0,0.0,42,0.00,,---,0.00,VWS V14.01,2013-04-17 00:58:00,
2013-04-16 20:00:00,72.0,47.6,27.85,South,180,0.0,0.0,42,0.00,,---,0.00,VWS V14.01,2013-04-17 01:00:00,
2013-04-16 20:02:00,72.0,47.6,27.88,South,180,0.0,0.0,42,0.00,,---,0.00,VWS V14.01,2013-04-17 01:02:00,
2013-04-16 20:03:00,72.0,47.6,27.88,South,180,0.0,0.0,42,0.00,,---,0.00,VWS V14.01,2013-04-17 01:03:00,
2013-04-16 20:05:00,72.0,47.6,27.88,South,180,0.0,0.0,42,0.00,,---,0.00,VWS V14.01,2013-04-17 01:05:00,
2013-04-16 20:07:00,71.8,47.5,27.88,South,180,0.0,0.0,42,0.00,,---,0.00,VWS V14.01,2013-04-17 01:07:00,
2013-04-16 20:08:00,71.8,47.5,27.88,South,180,0.0,0.0,42,0.00,,---,0.00,VWS V14.01,2013-04-17 01:08:00,
2013-04-16 20:10:00,71.8,47.5,27.88,South,180,0.0,0.0,42,0.00,,---,0.00,VWS V14.01,2013-04-17 01:10:00,
2013-04-16 20:12:00,71.6,47.3,27.88,South,180,0.0,0.0,42,0.00,,---,0.00,VWS V14.01,2013-04-17 01:12:00,
2013-04-16 20:13:00,71.6,47.3,27.88,South,180,0.0,0.0,42,0.00,,---,0.00,VWS V14.01,2013-04-17 01:13:00,
2013-04-16 20:15:00,71.6,47.3,27.88,South,180,0.0,0.0,42,0.00,,---,0.00,VWS V14.01,2013-04-17 01:15:00,
2013-04-16 20:17:00,71.6,47.3,27.88,South,180,0.0,0.0,42,0.00,,---,0.00,VWS V14.01,2013-04-17 01:17:00,
2013-04-16 20:18:00,71.6,47.3,27.88,South,180,0.0,0.0,42,0.00,,---,0.00,VWS V14.01,2013-04-17 01:18:00,
2013-04-16 20:19:00,71.6,47.3,27.88,South,180,0.0,0.0,42,0.00,,---,0.00,VWS V14.01,2013-04-17 01:19:00,
2013-04-16 20:20:00,71.4,47.8,27.88,South,180,0.0,0.0,43,0.00,,---,0.00,VWS V14.01,2013-04-17 01:20:00,
2013-04-16 20:22:00,71.4,47.8,27.88,South,180,2.7,2.7,43,0.00,,---,0.00,VWS V14.01,2013-04-17 01:22:00,
2013-04-16 20:23:00,71.4,47.8,27.88,South,169,2.7,2.7,43,0.00,,---,0.00,VWS V14.01,2013-04-17 01:23:00,
2013-04-16 20:24:00,71.4,47.8,27.88,South,169,2.7,2.7,43,0.00,,---,0.00,VWS V14.01,2013-04-17 01:24:00,
2013-04-16 20:26:00,71.4,47.8,27.88,South,169,2.7,2.7,43,0.00,,---,0.00,VWS V14.01,2013-04-17 01:26:00,
2013-04-16 20:27:00,71.4,47.8,27.88,South,169,2.7,2.7,43,0.00,,---,0.00,VWS V14.01,2013-04-17 01:27:00,
2013-04-16 20:29:00,71.4,47.8,27.88,South,169,0.0,2.7,43,0.00,,---,0.00,VWS V14.01,2013-04-17 01:29:00,
2013-04-16 20:31:00,71.4,47.8,27.88,South,169,0.0,0.0,43,0.00,,---,0.00,VWS V14.01,2013-04-17 01:31:00,
2013-04-16 20:32:00,71.4,47.8,27.88,South,169,0.0,0.0,43,0.00,,---,0.00,VWS V14.01,2013-04-17 01:32:00,
2013-04-16 20:33:00,71.4,47.8,27.88,SSE,168,0.0,0.0,43,0.00,,---,0.00,VWS V14.01,2013-04-17 01:33:00,
2013-04-16 20:34:00,71.4,47.8,27.88,SSE,168,0.0,0.0,43,0.00,,---,0.00,VWS V14.01,2013-04-17 01:34:00,
2013-04-16 20:35:00,71.4,47.8,27.88,SSE,168,0.0,0.0,43,0.00,,---,0.00,VWS V14.01,2013-04-17 01:35:00,
2013-04-16 20:36:00,71.2,48.2,27.88,SSE,168,0.0,0.0,44,0.00,,---,0.00,VWS V14.01,2013-04-17 01:36:00,
2013-04-16 20:38:00,71.2,48.2,27.88,South,172,0.0,0.0,44,0.00,,---,0.00,VWS V14.01,2013-04-17 01:38:00,
2013-04-16 20:39:00,71.2,48.2,27.88,South,172,0.0,0.0,44,0.00,,---,0.00,VWS V14.01,2013-04-17 01:39:00,
2013-04-16 20:40:00,71.2,48.2,27.88,South,172,0.0,0.0,44,0.00,,---,0.00,VWS V14.01,2013-04-17 01:40:00,
2013-04-16 20:41:00,71.2,48.2,27.85,South,171,0.0,0.0,44,0.00,,---,0.00,VWS V14.01,2013-04-17 01:41:00,
2013-04-16 20:43:00,71.2,48.2,27.85,South,171,0.0,0.0,44,0.00,,---,0.00,VWS V14.01,2013-04-17 01:43:00,
2013-04-16 20:44:00,71.2,48.2,27.85,South,171,0.0,0.0,44,0.00,,---,0.00,VWS V14.01,2013-04-17 01:44:00,
2013-04-16 20:45:00,71.2,48.2,27.85,South,171,0.0,0.0,44,0.00,,---,0.00,VWS V14.01,2013-04-17 01:45:00,
2013-04-16 20:46:00,71.2,48.2,27.85,South,171,0.0,0.0,44,0.00,,---,0.00,VWS V14.01,2013-04-17 01:46:00,
2013-04-16 20:48:00,71.2,48.2,27.85,South,171,0.0,0.0,44,0.00,,---,0.00,VWS V14.01,2013-04-17 01:48:00,
2013-04-16 20:49:00,71.2,48.2,27.85,South,171,0.0,0.0,44,0.00,,---,0.00,VWS V14.01,2013-04-17 01:49:00,
2013-04-16 20:50:00,71.2,48.2,27.85,South,170,0.0,0.0,44,0.00,,---,0.00,VWS V14.01,2013-04-17 01:50:00,
2013-04-16 20:52:00,71.2,48.2,27.85,South,170,0.0,0.0,44,0.00,,---,0.00,VWS V14.01,2013-04-17 01:52:00,
2013-04-16 20:53:00,71.1,47.5,27.85,South,170,0.0,0.0,43,0.00,,---,0.00,VWS V14.01,2013-04-17 01:53:00,
2013-04-16 20:54:00,71.1,47.5,27.85,South,170,0.0,0.0,43,0.00,,---,0.00,VWS V14.01,2013-04-17 01:54:00,
2013-04-16 20:55:00,71.1,47.5,27.85,South,170,0.0,0.0,43,0.00,,---,0.00,VWS V14.01,2013-04-17 01:55:00,
2013-04-16 20:57:00,70.9,47.3,27.85,South,170,0.0,0.0,43,0.00,,---,0.00,VWS V14.01,2013-04-17 01:57:00,
2013-04-16 20:58:00,70.9,47.3,27.85,South,170,0.0,0.0,43,0.00,,---,0.00,VWS V14.01,2013-04-17 01:58:00,
2013-04-16 20:59:00,70.9,47.3,27.85,South,170,0.0,0.0,43,0.00,,---,0.00,VWS V14.01,2013-04-17 01:59:00,
2013-04-16 21:00:00,70.9,47.3,27.85,South,170,0.0,0.0,43,0.00,,---,0.00,VWS V14.01,2013-04-17 02:00:00,
2013-04-16 21:02:00,70.9,47.3,27.85,South,170,0.0,0.0,43,0.00,,---,0.00,VWS V14.01,2013-04-17 02:02:00,
2013-04-16 21:03:00,70.9,47.3,27.85,South,170,0.0,0.0,43,0.00,,---,0.00,VWS V14.01,2013-04-17 02:03:00,
2013-04-16 21:04:00,70.9,47.9,27.85,South,187,2.7,2.7,44,0.00,,---,0.00,VWS V14.01,2013-04-17 02:04:00,
2013-04-16 21:05:00,70.9,47.9,27.85,South,187,0.0,0.0,44,0.00,,---,0.00,VWS V14.01,2013-04-17 02:05:00,
2013-04-16 21:07:00,70.9,47.9,27.85,South,187,0.0,0.0,44,0.00,,---,0.00,VWS V14.01,2013-04-17 02:07:00,
2013-04-16 21:08:00,70.9,47.9,27.85,South,187,0.0,0.0,44,0.00,,---,0.00,VWS V14.01,2013-04-17 02:08:00,
2013-04-16 21:09:00,70.9,47.9,27.85,SE,144,0.0,0.0,44,0.00,,---,0.00,VWS V14.01,2013-04-17 02:09:00,
2013-04-16 21:10:00,70.9,47.9,27.85,SE,144,0.0,0.0,44,0.00,,---,0.00,VWS V14.01,2013-04-17 02:10:00,
2013-04-16 21:12:00,71.1,47.5,27.85,South,170,3.1,3.1,43,0.00,,---,0.00,VWS V14.01,2013-04-17 02:12:00,
2013-04-16 21:13:00,71.1,47.5,27.85,South,170,3.1,3.1,43,0.00,,---,0.00,VWS V14.01,2013-04-17 02:13:00,
2013-04-16 21:14:00,71.2,47.6,27.85,South,175,3.1,3.1,43,0.00,,---,0.00,VWS V14.01,2013-04-17 02:14:00,
2013-04-16 21:15:00,71.2,47.6,27.85,South,175,2.7,2.7,43,0.00,,---,0.00,VWS V14.01,2013-04-17 02:15:00,
2013-04-16 21:18:00,71.2,47.6,27.85,South,175,0.0,3.1,43,0.00,,---,0.00,VWS V14.01,2013-04-17 02:18:00,
2013-04-16 21:19:00,71.2,47.6,27.85,South,175,0.0,0.0,43,0.00,,---,0.00,VWS V14.01,2013-04-17 02:19:00,
2013-04-16 21:20:00,71.2,47.6,27.85,South,175,0.0,0.0,43,0.00,,---,0.00,VWS V14.01,2013-04-17 02:20:00,
2013-04-16 21:21:00,71.2,47.6,27.85,South,175,0.0,0.0,43,0.00,,---,0.00,VWS V14.01,2013-04-17 02:21:00,
2013-04-16 21:23:00,71.2,47.6,27.85,South,175,0.0,0.0,43,0.00,,---,0.00,VWS V14.01,2013-04-17 02:23:00,
2013-04-16 21:24:00,71.2,47.6,27.85,South,175,0.0,0.0,43,0.00,,---,0.00,VWS V14.01,2013-04-17 02:24:00,
2013-04-16 21:26:00,71.2,47.6,27.85,SSE,165,2.7,3.1,43,0.00,,---,0.00,VWS V14.01,2013-04-17 02:26:00,
2013-04-16 21:28:00,71.2,47.6,27.85,SSE,165,0.0,0.0,43,0.00,,---,0.00,VWS V14.01,2013-04-17 02:28:00,
2013-04-16 21:29:00,70.9,47.3,27.85,SSE,165,0.0,0.0,43,0.00,,---,0.00,VWS V14.01,2013-04-17 02:29:00,
2013-04-16 21:30:00,70.9,47.3,27.85,SSE,165,0.0,0.0,43,0.00,,---,0.00,VWS V14.01,2013-04-17 02:30:00,
2013-04-16 21:31:00,70.9,47.3,27.85,SSE,151,2.7,2.7,43,0.00,,---,0.00,VWS V14.01,2013-04-17 02:31:00,
2013-04-16 21:33:00,70.9,47.3,27.85,SSE,151,2.7,2.7,43,0.00,,---,0.00,VWS V14.01,2013-04-17 02:33:00,
2013-04-16 21:34:00,70.9,47.3,27.85,SSE,151,2.7,2.7,43,0.00,,---,0.00,VWS V14.01,2013-04-17 02:34:00,
2013-04-16 21:36:00,70.9,47.3,27.85,South,178,4.0,4.0,43,0.00,,---,0.00,VWS V14.01,2013-04-17 02:36:00,
2013-04-16 21:38:00,70.9,47.3,27.88,South,178,4.0,4.0,43,0.00,,---,0.00,VWS V14.01,2013-04-17 02:38:00,
2013-04-16 21:39:00,70.9,47.3,27.88,South,169,2.7,2.7,43,0.00,,---,0.00,VWS V14.01,2013-04-17 02:39:00,
2013-04-16 21:41:00,71.1,47.5,27.88,South,191,3.1,3.1,43,0.00,,---,0.00,VWS V14.01,2013-04-17 02:41:00,
2013-04-16 21:43:00,71.1,47.5,27.88,South,190,0.0,0.0,43,0.00,,---,0.00,VWS V14.01,2013-04-17 02:43:00,
2013-04-16 21:44:00,71.1,47.5,27.88,South,190,0.0,0.0,43,0.00,,---,0.00,VWS V14.01,2013-04-17 02:44:00,
2013-04-16 21:46:00,71.1,47.5,27.88,South,189,0.0,0.0,43,0.00,,---,0.00,VWS V14.01,2013-04-17 02:46:00,
2013-04-16 21:49:00,71.1,47.5,27.88,South,189,0.0,0.0,43,0.00,,---,0.00,VWS V14.01,2013-04-17 02:49:00,
2013-04-16 21:50:00,71.1,47.5,27.88,South,189,0.0,0.0,43,0.00,,---,0.00,VWS V14.01,2013-04-17 02:50:00,
2013-04-16 21:51:00,71.1,47.5,27.88,SSE,168,0.0,0.0,43,0.00,,---,0.00,VWS V14.01,2013-04-17 02:51:00,
2013-04-16 21:54:00,71.1,47.5,27.88,SSE,168,0.0,0.0,43,0.00,,---,0.00,VWS V14.01,2013-04-17 02:54:00,
2013-04-16 21:55:00,71.1,47.5,27.88,SSE,168,0.0,0.0,43,0.00,,---,0.00,VWS V14.01,2013-04-17 02:55:00,
2013-04-16 21:56:00,70.7,47.1,27.88,SSE,168,0.0,0.0,43,0.00,,---,0.00,VWS V14.01,2013-04-17 02:56:00,
2013-04-16 21:57:00,70.7,47.1,27.88,SSE,168,0.0,0.0,43,0.00,,---,0.00,VWS V14.01,2013-04-17 02:57:00,
2013-04-16 21:59:00,70.7,47.1,27.88,SSE,168,0.0,0.0,43,0.00,,---,0.00,VWS V14.01,2013-04-17 02:59:00,
2013-04-16 22:00:00,70.7,47.1,27.88,SSE,168,0.0,0.0,43,0.00,,---,0.00,VWS V14.01,2013-04-17 03:00:00,
2013-04-16 22:02:00,70.5,47.0,27.88,SSE,168,0.0,0.0,43,0.00,,---,0.00,VWS V14.01,2013-04-17 03:02:00,
2013-04-16 22:04:00,70.5,47.0,27.88,SSE,168,0.0,0.0,43,0.00,,---,0.00,VWS V14.01,2013-04-17 03:04:00,
2013-04-16 22:05:00,70.5,47.0,27.88,SSE,168,0.0,0.0,43,0.00,,---,0.00,VWS V14.01,2013-04-17 03:05:00,
2013-04-16 22:07:00,70.5,47.0,27.88,South,184,0.0,0.0,43,0.00,,---,0.00,VWS V14.01,2013-04-17 03:07:00,
2013-04-16 22:09:00,70.5,47.0,27.88,South,184,0.0,0.0,43,0.00,,---,0.00,VWS V14.01,2013-04-17 03:09:00,
2013-04-16 22:10:00,70.5,47.0,27.88,South,184,0.0,0.0,43,0.00,,---,0.00,VWS V14.01,2013-04-17 03:10:00,
2013-04-16 22:12:00,70.5,47.0,27.88,South,184,0.0,0.0,43,0.00,,---,0.00,VWS V14.01,2013-04-17 03:12:00,
2013-04-16 22:13:00,70.5,47.0,27.88,South,184,0.0,0.0,43,0.00,,---,0.00,VWS V14.01,2013-04-17 03:13:00,
2013-04-16 22:14:00,70.5,47.0,27.85,South,184,0.0,0.0,43,0.00,,---,0.00,VWS V14.01,2013-04-17 03:14:00,
2013-04-16 22:15:00,70.5,47.0,27.85,South,177,0.0,0.0,43,0.00,,---,0.00,VWS V14.01,2013-04-17 03:15:00,
2013-04-16 22:18:00,70.5,47.0,27.85,South,177,0.0,0.0,43,0.00,,---,0.00,VWS V14.01,2013-04-17 03:18:00,
2013-04-16 22:19:00,70.5,47.0,27.85,South,177,0.0,0.0,43,0.00,,---,0.00,VWS V14.01,2013-04-17 03:19:00,
2013-04-16 22:20:00,70.5,47.0,27.85,South,177,0.0,0.0,43,0.00,,---,0.00,VWS V14.01,2013-04-17 03:20:00,
2013-04-16 22:23:00,70.3,47.4,27.85,South,177,0.0,0.0,44,0.00,,---,0.00,VWS V14.01,2013-04-17 03:23:00,
2013-04-16 22:25:00,70.3,47.4,27.85,South,183,0.0,0.0,44,0.00,,---,0.00,VWS V14.01,2013-04-17 03:25:00,
2013-04-16 22:28:00,70.2,47.2,27.85,South,183,0.0,0.0,44,0.00,,---,0.00,VWS V14.01,2013-04-17 03:28:00,
2013-04-16 22:30:00,70.2,47.2,27.85,South,183,0.0,0.0,44,0.00,,---,0.00,VWS V14.01,2013-04-17 03:30:00,
2013-04-16 22:33:00,70.2,47.2,27.85,South,183,0.0,0.0,44,0.00,,---,0.00,VWS V14.01,2013-04-17 03:33:00,
2013-04-16 22:35:00,70.2,47.2,27.85,South,183,0.0,0.0,44,0.00,,---,0.00,VWS V14.01,2013-04-17 03:35:00,
2013-04-16 22:38:00,70.2,47.2,27.85,South,183,0.0,0.0,44,0.00,,---,0.00,VWS V14.01,2013-04-17 03:38:00,
2013-04-16 22:40:00,69.8,47.5,27.85,South,183,0.0,0.0,45,0.00,,---,0.00,VWS V14.01,2013-04-17 03:40:00,
2013-04-16 22:43:00,69.8,47.5,27.85,South,183,0.0,0.0,45,0.00,,---,0.00,VWS V14.01,2013-04-17 03:43:00,
2013-04-16 22:45:00,69.8,47.5,27.85,South,183,0.0,0.0,45,0.00,,---,0.00,VWS V14.01,2013-04-17 03:45:00,
2013-04-16 22:48:00,69.8,47.5,27.85,South,183,0.0,0.0,45,0.00,,---,0.00,VWS V14.01,2013-04-17 03:48:00,
2013-04-16 22:50:00,69.8,47.5,27.85,South,183,0.0,0.0,45,0.00,,---,0.00,VWS V14.01,2013-04-17 03:50:00,
2013-04-16 22:51:00,69.8,47.5,27.85,South,183,0.0,0.0,45,0.00,,---,0.00,VWS V14.01,2013-04-17 03:51:00,
2013-04-16 22:53:00,69.8,47.5,27.85,South,183,0.0,0.0,45,0.00,,---,0.00,VWS V14.01,2013-04-17 03:53:00,
2013-04-16 22:55:00,69.6,48.0,27.85,South,183,0.0,0.0,46,0.00,,---,0.00,VWS V14.01,2013-04-17 03:55:00,
2013-04-16 22:56:00,69.6,48.0,27.85,South,183,0.0,0.0,46,0.00,,---,0.00,VWS V14.01,2013-04-17 03:56:00,
2013-04-16 22:58:00,69.6,48.0,27.85,South,183,0.0,0.0,46,0.00,,---,0.00,VWS V14.01,2013-04-17 03:58:00,
2013-04-16 22:59:00,69.6,48.0,27.85,South,183,0.0,0.0,46,0.00,,---,0.00,VWS V14.01,2013-04-17 03:59:00,
2013-04-16 23:00:00,69.6,48.0,27.85,South,183,0.0,0.0,46,0.00,,---,0.00,VWS V14.01,2013-04-17 04:00:00,
2013-04-16 23:05:00,69.4,47.8,27.85,South,184,0.0,0.0,46,0.00,,---,0.00,VWS V14.01,2013-04-17 04:05:00,
2013-04-16 23:06:00,69.4,47.8,27.85,South,184,0.0,0.0,46,0.00,,---,0.00,VWS V14.01,2013-04-17 04:06:00,
2013-04-16 23:10:00,69.4,47.8,27.85,South,184,0.0,3.6,46,0.00,,---,0.00,VWS V14.01,2013-04-17 04:10:00,
2013-04-16 23:11:00,69.4,47.8,27.85,South,184,0.0,0.0,46,0.00,,---,0.00,VWS V14.01,2013-04-17 04:11:00,
2013-04-16 23:15:00,69.1,48.6,27.85,South,184,0.0,0.0,48,0.00,,---,0.00,VWS V14.01,2013-04-17 04:15:00,
2013-04-16 23:16:00,69.1,48.6,27.85,South,184,0.0,0.0,48,0.00,,---,0.00,VWS V14.01,2013-04-17 04:16:00,
2013-04-16 23:20:00,69.1,48.6,27.85,South,177,3.6,3.6,48,0.00,,---,0.00,VWS V14.01,2013-04-17 04:20:00,
2013-04-16 23:21:00,68.9,49.0,27.85,South,177,3.6,3.6,49,0.00,,---,0.00,VWS V14.01,2013-04-17 04:21:00,
2013-04-16 23:25:00,68.9,49.0,27.85,South,177,0.0,0.0,49,0.00,,---,0.00,VWS V14.01,2013-04-17 04:25:00,
2013-04-16 23:26:00,68.9,49.0,27.85,South,177,2.2,2.2,49,0.00,,---,0.00,VWS V14.01,2013-04-17 04:26:00,
2013-04-16 23:27:00,68.9,49.0,27.85,South,177,0.0,2.2,49,0.00,,---,0.00,VWS V14.01,2013-04-17 04:27:00,
2013-04-16 23:30:00,68.9,49.0,27.85,South,177,0.0,0.0,49,0.00,,---,0.00,VWS V14.01,2013-04-17 04:30:00,
2013-04-16 23:32:00,68.9,49.0,27.85,South,177,0.0,0.0,49,0.00,,---,0.00,VWS V14.01,2013-04-17 04:32:00,
2013-04-16 23:33:00,68.7,48.3,27.85,South,177,0.0,0.0,48,0.00,,---,0.00,VWS V14.01,2013-04-17 04:33:00,
2013-04-16 23:35:00,68.7,48.3,27.85,South,177,0.0,0.0,48,0.00,,---,0.00,VWS V14.01,2013-04-17 04:35:00,
2013-04-16 23:37:00,68.7,48.8,27.85,South,177,0.0,0.0,49,0.00,,---,0.00,VWS V14.01,2013-04-17 04:37:00,
2013-04-16 23:38:00,68.7,48.8,27.85,South,177,0.0,0.0,49,0.00,,---,0.00,VWS V14.01,2013-04-17 04:38:00,
2013-04-16 23:41:00,68.5,48.6,27.85,South,177,0.0,0.0,49,0.00,,---,0.00,VWS V14.01,2013-04-17 04:41:00,
2013-04-16 23:42:00,68.5,48.6,27.85,South,177,0.0,0.0,49,0.00,,---,0.00,VWS V14.01,2013-04-17 04:42:00,
2013-04-16 23:43:00,68.5,48.6,27.85,South,177,0.0,0.0,49,0.00,,---,0.00,VWS V14.01,2013-04-17 04:43:00,
2013-04-16 23:46:00,68.5,48.6,27.85,South,177,0.0,0.0,49,0.00,,---,0.00,VWS V14.01,2013-04-17 04:46:00,
2013-04-16 23:47:00,68.5,48.6,27.88,South,177,0.0,0.0,49,0.00,,---,0.00,VWS V14.01,2013-04-17 04:47:00,
2013-04-16 23:48:00,68.4,47.9,27.88,South,177,0.0,0.0,48,0.00,,---,0.00,VWS V14.01,2013-04-17 04:48:00,
2013-04-16 23:51:00,68.2,47.8,27.88,South,177,0.0,0.0,48,0.00,,---,0.00,VWS V14.01,2013-04-17 04:51:00,
2013-04-16 23:52:00,68.2,47.8,27.88,South,177,0.0,0.0,48,0.00,,---,0.00,VWS V14.01,2013-04-17 04:52:00,
2013-04-16 23:53:00,68.2,47.8,27.88,South,177,0.0,0.0,48,0.00,,---,0.00,VWS V14.01,2013-04-17 04:53:00,
2013-04-16 23:56:00,68.2,47.8,27.88,South,177,0.0,0.0,48,0.00,,---,0.00,VWS V14.01,2013-04-17 04:56:00,
2013-04-16 23:57:00,68.2,47.8,27.88,South,177,0.0,0.0,48,0.00,,---,0.00,VWS V14.01,2013-04-17 04:57:00,
2013-04-16 23:58:00,68.2,47.8,27.88,South,177,0.0,0.0,48,0.00,,---,0.00,VWS V14.01,2013-04-17 04:58:00,